<?xml version="1.0" encoding="UTF-8" standalone="no" ?>
<gpx xmlns="http://www.topografix.com/GPX/1/1" xmlns:xsi="http://www.w3.org/2001/XMLSchema-instance" xsi:schemaLocation="http://www.topografix.com/GPX/1/1 http://www.topografix.com/GPX/1/1/gpx.xsd" version="1.1" creator="VisuGPX - https://www.visugpx.com">
  <metadata>
    <name>Gigaro Cap Taillat</name>
    <desc><![CDATA[<https://photos.app.goo.gl/fg9i2PKAy8iZFLCi6>
Se garer sur le bon parking de Gigaro et non le long de la plage!!Suivre le sentier du littoral qui quitte un moment la cote pour y revenir vers Cap Lardier.Poursuivre jusqu'à la presque île de Cap Taillat. Pour le retour , beaucoup plus court de passer par l'intérieur par une propriété privée avec droit de passage et explication de texte courtoise par des salariés du château.]]></desc>
  </metadata>
  <trk>
    <name><![CDATA[22 sept. 2018 à 09:02:18]]></name>
    <cmt><![CDATA[22 sept. 2018 à 09:02:18]]></cmt>
    <trkseg>
      <trkpt lat="43.18516" lon="6.5989">
        <ele>10</ele>
        <time>2018-09-22T07:02:19Z</time>
      </trkpt>
      <trkpt lat="43.18516" lon="6.5989">
        <ele>10</ele>
        <time>2018-09-22T07:02:20Z</time>
      </trkpt>
      <trkpt lat="43.1852" lon="6.59884">
        <ele>9</ele>
        <time>2018-09-22T07:03:23Z</time>
      </trkpt>
      <trkpt lat="43.18524" lon="6.59876">
        <ele>9</ele>
        <time>2018-09-22T07:03:33Z</time>
      </trkpt>
      <trkpt lat="43.18529" lon="6.59875">
        <ele>9</ele>
        <time>2018-09-22T07:03:36Z</time>
      </trkpt>
      <trkpt lat="43.18519" lon="6.59861">
        <ele>9</ele>
        <time>2018-09-22T07:03:58Z</time>
      </trkpt>
      <trkpt lat="43.18513" lon="6.5985">
        <ele>9</ele>
        <time>2018-09-22T07:04:06Z</time>
      </trkpt>
      <trkpt lat="43.18492" lon="6.5984">
        <ele>9</ele>
        <time>2018-09-22T07:04:25Z</time>
      </trkpt>
      <trkpt lat="43.18487" lon="6.5984">
        <ele>9</ele>
        <time>2018-09-22T07:04:30Z</time>
      </trkpt>
      <trkpt lat="43.1845" lon="6.59842">
        <ele>8</ele>
        <time>2018-09-22T07:05:03Z</time>
      </trkpt>
      <trkpt lat="43.1843" lon="6.59844">
        <ele>8</ele>
        <time>2018-09-22T07:05:20Z</time>
      </trkpt>
      <trkpt lat="43.18429" lon="6.5985">
        <ele>8</ele>
        <time>2018-09-22T07:05:25Z</time>
      </trkpt>
      <trkpt lat="43.18429" lon="6.59854">
        <ele>7</ele>
        <time>2018-09-22T07:08:16Z</time>
      </trkpt>
      <trkpt lat="43.18428" lon="6.59863">
        <ele>6</ele>
        <time>2018-09-22T07:08:26Z</time>
      </trkpt>
      <trkpt lat="43.18421" lon="6.59869">
        <ele>6</ele>
        <time>2018-09-22T07:08:48Z</time>
      </trkpt>
      <trkpt lat="43.18417" lon="6.59875">
        <ele>6</ele>
        <time>2018-09-22T07:08:52Z</time>
      </trkpt>
      <trkpt lat="43.1842" lon="6.59897">
        <ele>6</ele>
        <time>2018-09-22T07:09:07Z</time>
      </trkpt>
      <trkpt lat="43.18408" lon="6.59943">
        <ele>6</ele>
        <time>2018-09-22T07:09:39Z</time>
      </trkpt>
      <trkpt lat="43.18403" lon="6.59956">
        <ele>6</ele>
        <time>2018-09-22T07:09:47Z</time>
      </trkpt>
      <trkpt lat="43.184" lon="6.59975">
        <ele>5</ele>
        <time>2018-09-22T07:09:59Z</time>
      </trkpt>
      <trkpt lat="43.18396" lon="6.5998">
        <ele>5</ele>
        <time>2018-09-22T07:10:04Z</time>
      </trkpt>
      <trkpt lat="43.18395" lon="6.59986">
        <ele>5</ele>
        <time>2018-09-22T07:10:08Z</time>
      </trkpt>
      <trkpt lat="43.18392" lon="6.59992">
        <ele>5</ele>
        <time>2018-09-22T07:10:13Z</time>
      </trkpt>
      <trkpt lat="43.18394" lon="6.6">
        <ele>5</ele>
        <time>2018-09-22T07:10:40Z</time>
      </trkpt>
      <trkpt lat="43.18392" lon="6.60008">
        <ele>5</ele>
        <time>2018-09-22T07:10:47Z</time>
      </trkpt>
      <trkpt lat="43.18389" lon="6.60013">
        <ele>5</ele>
        <time>2018-09-22T07:10:51Z</time>
      </trkpt>
      <trkpt lat="43.18381" lon="6.60039">
        <ele>5</ele>
        <time>2018-09-22T07:11:09Z</time>
      </trkpt>
      <trkpt lat="43.18379" lon="6.60054">
        <ele>5</ele>
        <time>2018-09-22T07:11:20Z</time>
      </trkpt>
      <trkpt lat="43.18369" lon="6.60062">
        <ele>5</ele>
        <time>2018-09-22T07:11:32Z</time>
      </trkpt>
      <trkpt lat="43.18367" lon="6.60063">
        <ele>5</ele>
        <time>2018-09-22T07:12:25Z</time>
      </trkpt>
      <trkpt lat="43.18373" lon="6.60068">
        <ele>5</ele>
        <time>2018-09-22T07:13:00Z</time>
      </trkpt>
      <trkpt lat="43.1837" lon="6.60074">
        <ele>5</ele>
        <time>2018-09-22T07:13:06Z</time>
      </trkpt>
      <trkpt lat="43.18355" lon="6.60121">
        <ele>5</ele>
        <time>2018-09-22T07:13:39Z</time>
      </trkpt>
      <trkpt lat="43.18351" lon="6.60134">
        <ele>5</ele>
        <time>2018-09-22T07:13:47Z</time>
      </trkpt>
      <trkpt lat="43.18346" lon="6.6014">
        <ele>5</ele>
        <time>2018-09-22T07:13:51Z</time>
      </trkpt>
      <trkpt lat="43.18342" lon="6.60143">
        <ele>5</ele>
        <time>2018-09-22T07:13:54Z</time>
      </trkpt>
      <trkpt lat="43.18338" lon="6.60147">
        <ele>4</ele>
        <time>2018-09-22T07:14:01Z</time>
      </trkpt>
      <trkpt lat="43.18329" lon="6.60145">
        <ele>4</ele>
        <time>2018-09-22T07:14:10Z</time>
      </trkpt>
      <trkpt lat="43.18324" lon="6.60144">
        <ele>4</ele>
        <time>2018-09-22T07:14:14Z</time>
      </trkpt>
      <trkpt lat="43.18319" lon="6.60146">
        <ele>4</ele>
        <time>2018-09-22T07:14:18Z</time>
      </trkpt>
      <trkpt lat="43.18315" lon="6.6015">
        <ele>4</ele>
        <time>2018-09-22T07:14:22Z</time>
      </trkpt>
      <trkpt lat="43.18304" lon="6.60153">
        <ele>4</ele>
        <time>2018-09-22T07:14:31Z</time>
      </trkpt>
      <trkpt lat="43.18301" lon="6.60158">
        <ele>4</ele>
        <time>2018-09-22T07:14:35Z</time>
      </trkpt>
      <trkpt lat="43.18296" lon="6.6017">
        <ele>4</ele>
        <time>2018-09-22T07:14:43Z</time>
      </trkpt>
      <trkpt lat="43.18293" lon="6.60203">
        <ele>4</ele>
        <time>2018-09-22T07:15:21Z</time>
      </trkpt>
      <trkpt lat="43.1829" lon="6.60214">
        <ele>4</ele>
        <time>2018-09-22T07:15:29Z</time>
      </trkpt>
      <trkpt lat="43.18281" lon="6.60219">
        <ele>5</ele>
        <time>2018-09-22T07:15:37Z</time>
      </trkpt>
      <trkpt lat="43.18271" lon="6.60219">
        <ele>5</ele>
        <time>2018-09-22T07:15:44Z</time>
      </trkpt>
      <trkpt lat="43.18262" lon="6.60213">
        <ele>5</ele>
        <time>2018-09-22T07:15:50Z</time>
      </trkpt>
      <trkpt lat="43.18252" lon="6.60214">
        <ele>5</ele>
        <time>2018-09-22T07:15:59Z</time>
      </trkpt>
      <trkpt lat="43.18244" lon="6.60221">
        <ele>5</ele>
        <time>2018-09-22T07:16:08Z</time>
      </trkpt>
      <trkpt lat="43.18239" lon="6.60231">
        <ele>5</ele>
        <time>2018-09-22T07:16:17Z</time>
      </trkpt>
      <trkpt lat="43.18214" lon="6.60243">
        <ele>5</ele>
        <time>2018-09-22T07:16:55Z</time>
      </trkpt>
      <trkpt lat="43.18207" lon="6.60236">
        <ele>5</ele>
        <time>2018-09-22T07:17:05Z</time>
      </trkpt>
      <trkpt lat="43.18199" lon="6.6022">
        <ele>6</ele>
        <time>2018-09-22T07:17:23Z</time>
      </trkpt>
      <trkpt lat="43.18195" lon="6.60222">
        <ele>6</ele>
        <time>2018-09-22T07:17:31Z</time>
      </trkpt>
      <trkpt lat="43.18184" lon="6.60245">
        <ele>6</ele>
        <time>2018-09-22T07:17:50Z</time>
      </trkpt>
      <trkpt lat="43.18179" lon="6.60248">
        <ele>6</ele>
        <time>2018-09-22T07:17:55Z</time>
      </trkpt>
      <trkpt lat="43.18175" lon="6.60246">
        <ele>6</ele>
        <time>2018-09-22T07:17:59Z</time>
      </trkpt>
      <trkpt lat="43.1817" lon="6.60243">
        <ele>6</ele>
        <time>2018-09-22T07:18:06Z</time>
      </trkpt>
      <trkpt lat="43.18167" lon="6.60239">
        <ele>6</ele>
        <time>2018-09-22T07:18:10Z</time>
      </trkpt>
      <trkpt lat="43.1816" lon="6.60235">
        <ele>6</ele>
        <time>2018-09-22T07:18:17Z</time>
      </trkpt>
      <trkpt lat="43.18155" lon="6.60235">
        <ele>6</ele>
        <time>2018-09-22T07:18:20Z</time>
      </trkpt>
      <trkpt lat="43.18148" lon="6.60237">
        <ele>6</ele>
        <time>2018-09-22T07:18:30Z</time>
      </trkpt>
      <trkpt lat="43.18147" lon="6.60244">
        <ele>6</ele>
        <time>2018-09-22T07:18:40Z</time>
      </trkpt>
      <trkpt lat="43.18141" lon="6.60252">
        <ele>6</ele>
        <time>2018-09-22T07:19:06Z</time>
      </trkpt>
      <trkpt lat="43.18136" lon="6.60256">
        <ele>6</ele>
        <time>2018-09-22T07:19:10Z</time>
      </trkpt>
      <trkpt lat="43.18132" lon="6.60258">
        <ele>6</ele>
        <time>2018-09-22T07:19:38Z</time>
      </trkpt>
      <trkpt lat="43.18117" lon="6.60261">
        <ele>6</ele>
        <time>2018-09-22T07:19:52Z</time>
      </trkpt>
      <trkpt lat="43.18113" lon="6.60265">
        <ele>6</ele>
        <time>2018-09-22T07:19:56Z</time>
      </trkpt>
      <trkpt lat="43.18105" lon="6.60275">
        <ele>6</ele>
        <time>2018-09-22T07:20:05Z</time>
      </trkpt>
      <trkpt lat="43.18096" lon="6.60274">
        <ele>6</ele>
        <time>2018-09-22T07:20:14Z</time>
      </trkpt>
      <trkpt lat="43.18086" lon="6.60278">
        <ele>5</ele>
        <time>2018-09-22T07:20:23Z</time>
      </trkpt>
      <trkpt lat="43.18083" lon="6.60286">
        <ele>6</ele>
        <time>2018-09-22T07:20:40Z</time>
      </trkpt>
      <trkpt lat="43.18079" lon="6.60289">
        <ele>6</ele>
        <time>2018-09-22T07:20:45Z</time>
      </trkpt>
      <trkpt lat="43.1806" lon="6.6029">
        <ele>5</ele>
        <time>2018-09-22T07:21:13Z</time>
      </trkpt>
      <trkpt lat="43.18056" lon="6.60295">
        <ele>5</ele>
        <time>2018-09-22T07:21:18Z</time>
      </trkpt>
      <trkpt lat="43.18054" lon="6.603">
        <ele>5</ele>
        <time>2018-09-22T07:21:22Z</time>
      </trkpt>
      <trkpt lat="43.18054" lon="6.60307">
        <ele>5</ele>
        <time>2018-09-22T07:21:26Z</time>
      </trkpt>
      <trkpt lat="43.18047" lon="6.60311">
        <ele>5</ele>
        <time>2018-09-22T07:21:35Z</time>
      </trkpt>
      <trkpt lat="43.18043" lon="6.60308">
        <ele>5</ele>
        <time>2018-09-22T07:21:40Z</time>
      </trkpt>
      <trkpt lat="43.18032" lon="6.60304">
        <ele>5</ele>
        <time>2018-09-22T07:21:52Z</time>
      </trkpt>
      <trkpt lat="43.18027" lon="6.60305">
        <ele>5</ele>
        <time>2018-09-22T07:21:57Z</time>
      </trkpt>
      <trkpt lat="43.18023" lon="6.60303">
        <ele>5</ele>
        <time>2018-09-22T07:22:02Z</time>
      </trkpt>
      <trkpt lat="43.18016" lon="6.60301">
        <ele>6</ele>
        <time>2018-09-22T07:22:13Z</time>
      </trkpt>
      <trkpt lat="43.1801" lon="6.60292">
        <ele>6</ele>
        <time>2018-09-22T07:22:22Z</time>
      </trkpt>
      <trkpt lat="43.17988" lon="6.60286">
        <ele>6</ele>
        <time>2018-09-22T07:22:45Z</time>
      </trkpt>
      <trkpt lat="43.1798" lon="6.60291">
        <ele>6</ele>
        <time>2018-09-22T07:22:55Z</time>
      </trkpt>
      <trkpt lat="43.1797" lon="6.6029">
        <ele>6</ele>
        <time>2018-09-22T07:23:03Z</time>
      </trkpt>
      <trkpt lat="43.17962" lon="6.60292">
        <ele>6</ele>
        <time>2018-09-22T07:23:12Z</time>
      </trkpt>
      <trkpt lat="43.17944" lon="6.60292">
        <ele>6</ele>
        <time>2018-09-22T07:23:27Z</time>
      </trkpt>
      <trkpt lat="43.17939" lon="6.60293">
        <ele>6</ele>
        <time>2018-09-22T07:23:31Z</time>
      </trkpt>
      <trkpt lat="43.17929" lon="6.60292">
        <ele>6</ele>
        <time>2018-09-22T07:23:39Z</time>
      </trkpt>
      <trkpt lat="43.17926" lon="6.60297">
        <ele>6</ele>
        <time>2018-09-22T07:23:44Z</time>
      </trkpt>
      <trkpt lat="43.1792" lon="6.60294">
        <ele>7</ele>
        <time>2018-09-22T07:23:51Z</time>
      </trkpt>
      <trkpt lat="43.17915" lon="6.60293">
        <ele>7</ele>
        <time>2018-09-22T07:23:55Z</time>
      </trkpt>
      <trkpt lat="43.1791" lon="6.60294">
        <ele>7</ele>
        <time>2018-09-22T07:24:00Z</time>
      </trkpt>
      <trkpt lat="43.179" lon="6.60306">
        <ele>7</ele>
        <time>2018-09-22T07:24:20Z</time>
      </trkpt>
      <trkpt lat="43.17889" lon="6.60326">
        <ele>7</ele>
        <time>2018-09-22T07:24:39Z</time>
      </trkpt>
      <trkpt lat="43.17878" lon="6.60332">
        <ele>7</ele>
        <time>2018-09-22T07:25:00Z</time>
      </trkpt>
      <trkpt lat="43.17872" lon="6.60329">
        <ele>7</ele>
        <time>2018-09-22T07:25:24Z</time>
      </trkpt>
      <trkpt lat="43.17869" lon="6.60335">
        <ele>8</ele>
        <time>2018-09-22T07:25:49Z</time>
      </trkpt>
      <trkpt lat="43.17857" lon="6.60345">
        <ele>8</ele>
        <time>2018-09-22T07:26:06Z</time>
      </trkpt>
      <trkpt lat="43.17856" lon="6.60356">
        <ele>8</ele>
        <time>2018-09-22T07:26:26Z</time>
      </trkpt>
      <trkpt lat="43.17852" lon="6.60361">
        <ele>8</ele>
        <time>2018-09-22T07:26:31Z</time>
      </trkpt>
      <trkpt lat="43.17848" lon="6.60365">
        <ele>8</ele>
        <time>2018-09-22T07:26:36Z</time>
      </trkpt>
      <trkpt lat="43.17846" lon="6.60372">
        <ele>8</ele>
        <time>2018-09-22T07:26:40Z</time>
      </trkpt>
      <trkpt lat="43.17838" lon="6.60381">
        <ele>8</ele>
        <time>2018-09-22T07:26:49Z</time>
      </trkpt>
      <trkpt lat="43.17814" lon="6.60372">
        <ele>9</ele>
        <time>2018-09-22T07:27:08Z</time>
      </trkpt>
      <trkpt lat="43.17804" lon="6.60376">
        <ele>9</ele>
        <time>2018-09-22T07:27:17Z</time>
      </trkpt>
      <trkpt lat="43.17787" lon="6.60381">
        <ele>9</ele>
        <time>2018-09-22T07:27:29Z</time>
      </trkpt>
      <trkpt lat="43.17761" lon="6.60396">
        <ele>9</ele>
        <time>2018-09-22T07:27:46Z</time>
      </trkpt>
      <trkpt lat="43.17758" lon="6.60401">
        <ele>9</ele>
        <time>2018-09-22T07:27:51Z</time>
      </trkpt>
      <trkpt lat="43.17753" lon="6.60399">
        <ele>9</ele>
        <time>2018-09-22T07:28:03Z</time>
      </trkpt>
      <trkpt lat="43.17747" lon="6.60396">
        <ele>9</ele>
        <time>2018-09-22T07:28:33Z</time>
      </trkpt>
      <trkpt lat="43.17745" lon="6.60388">
        <ele>9</ele>
        <time>2018-09-22T07:28:41Z</time>
      </trkpt>
      <trkpt lat="43.17726" lon="6.60384">
        <ele>9</ele>
        <time>2018-09-22T07:29:00Z</time>
      </trkpt>
      <trkpt lat="43.17719" lon="6.60376">
        <ele>9</ele>
        <time>2018-09-22T07:29:08Z</time>
      </trkpt>
      <trkpt lat="43.17715" lon="6.60369">
        <ele>9</ele>
        <time>2018-09-22T07:29:31Z</time>
      </trkpt>
      <trkpt lat="43.17711" lon="6.60366">
        <ele>9</ele>
        <time>2018-09-22T07:29:35Z</time>
      </trkpt>
      <trkpt lat="43.17701" lon="6.60361">
        <ele>9</ele>
        <time>2018-09-22T07:29:43Z</time>
      </trkpt>
      <trkpt lat="43.17694" lon="6.60367">
        <ele>9</ele>
        <time>2018-09-22T07:29:57Z</time>
      </trkpt>
      <trkpt lat="43.17684" lon="6.60398">
        <ele>8</ele>
        <time>2018-09-22T07:30:22Z</time>
      </trkpt>
      <trkpt lat="43.17683" lon="6.60407">
        <ele>8</ele>
        <time>2018-09-22T07:30:31Z</time>
      </trkpt>
      <trkpt lat="43.17679" lon="6.60413">
        <ele>8</ele>
        <time>2018-09-22T07:30:41Z</time>
      </trkpt>
      <trkpt lat="43.17673" lon="6.60413">
        <ele>8</ele>
        <time>2018-09-22T07:30:47Z</time>
      </trkpt>
      <trkpt lat="43.17667" lon="6.60423">
        <ele>8</ele>
        <time>2018-09-22T07:30:57Z</time>
      </trkpt>
      <trkpt lat="43.17666" lon="6.6043">
        <ele>8</ele>
        <time>2018-09-22T07:31:02Z</time>
      </trkpt>
      <trkpt lat="43.17665" lon="6.6044">
        <ele>8</ele>
        <time>2018-09-22T07:31:12Z</time>
      </trkpt>
      <trkpt lat="43.17666" lon="6.60449">
        <ele>8</ele>
        <time>2018-09-22T07:31:21Z</time>
      </trkpt>
      <trkpt lat="43.1766" lon="6.60457">
        <ele>8</ele>
        <time>2018-09-22T07:31:39Z</time>
      </trkpt>
      <trkpt lat="43.1765" lon="6.6045">
        <ele>8</ele>
        <time>2018-09-22T07:31:50Z</time>
      </trkpt>
      <trkpt lat="43.17644" lon="6.6045">
        <ele>8</ele>
        <time>2018-09-22T07:31:54Z</time>
      </trkpt>
      <trkpt lat="43.1764" lon="6.60451">
        <ele>8</ele>
        <time>2018-09-22T07:31:59Z</time>
      </trkpt>
      <trkpt lat="43.17633" lon="6.60448">
        <ele>8</ele>
        <time>2018-09-22T07:32:06Z</time>
      </trkpt>
      <trkpt lat="43.17629" lon="6.60445">
        <ele>8</ele>
        <time>2018-09-22T07:32:10Z</time>
      </trkpt>
      <trkpt lat="43.17618" lon="6.60446">
        <ele>8</ele>
        <time>2018-09-22T07:32:22Z</time>
      </trkpt>
      <trkpt lat="43.17613" lon="6.60449">
        <ele>8</ele>
        <time>2018-09-22T07:32:27Z</time>
      </trkpt>
      <trkpt lat="43.17608" lon="6.60448">
        <ele>8</ele>
        <time>2018-09-22T07:32:31Z</time>
      </trkpt>
      <trkpt lat="43.17604" lon="6.60453">
        <ele>8</ele>
        <time>2018-09-22T07:32:38Z</time>
      </trkpt>
      <trkpt lat="43.17599" lon="6.60452">
        <ele>8</ele>
        <time>2018-09-22T07:32:43Z</time>
      </trkpt>
      <trkpt lat="43.17595" lon="6.60454">
        <ele>8</ele>
        <time>2018-09-22T07:32:48Z</time>
      </trkpt>
      <trkpt lat="43.1759" lon="6.60454">
        <ele>8</ele>
        <time>2018-09-22T07:32:53Z</time>
      </trkpt>
      <trkpt lat="43.17586" lon="6.60452">
        <ele>8</ele>
        <time>2018-09-22T07:32:57Z</time>
      </trkpt>
      <trkpt lat="43.17567" lon="6.60458">
        <ele>8</ele>
        <time>2018-09-22T07:33:29Z</time>
      </trkpt>
      <trkpt lat="43.17563" lon="6.60463">
        <ele>8</ele>
        <time>2018-09-22T07:33:34Z</time>
      </trkpt>
      <trkpt lat="43.17561" lon="6.60469">
        <ele>9</ele>
        <time>2018-09-22T07:33:39Z</time>
      </trkpt>
      <trkpt lat="43.17554" lon="6.60472">
        <ele>9</ele>
        <time>2018-09-22T07:33:46Z</time>
      </trkpt>
      <trkpt lat="43.1755" lon="6.60469">
        <ele>9</ele>
        <time>2018-09-22T07:33:50Z</time>
      </trkpt>
      <trkpt lat="43.17538" lon="6.60467">
        <ele>9</ele>
        <time>2018-09-22T07:34:11Z</time>
      </trkpt>
      <trkpt lat="43.17526" lon="6.60438">
        <ele>8</ele>
        <time>2018-09-22T07:34:32Z</time>
      </trkpt>
      <trkpt lat="43.17522" lon="6.60436">
        <ele>8</ele>
        <time>2018-09-22T07:34:36Z</time>
      </trkpt>
      <trkpt lat="43.17516" lon="6.60428">
        <ele>8</ele>
        <time>2018-09-22T07:34:46Z</time>
      </trkpt>
      <trkpt lat="43.17511" lon="6.60423">
        <ele>8</ele>
        <time>2018-09-22T07:34:53Z</time>
      </trkpt>
      <trkpt lat="43.17502" lon="6.60433">
        <ele>8</ele>
        <time>2018-09-22T07:35:13Z</time>
      </trkpt>
      <trkpt lat="43.17496" lon="6.60435">
        <ele>9</ele>
        <time>2018-09-22T07:35:23Z</time>
      </trkpt>
      <trkpt lat="43.17493" lon="6.60426">
        <ele>9</ele>
        <time>2018-09-22T07:35:30Z</time>
      </trkpt>
      <trkpt lat="43.17489" lon="6.604">
        <ele>9</ele>
        <time>2018-09-22T07:35:45Z</time>
      </trkpt>
      <trkpt lat="43.17494" lon="6.60391">
        <ele>9</ele>
        <time>2018-09-22T07:36:05Z</time>
      </trkpt>
      <trkpt lat="43.17496" lon="6.60385">
        <ele>9</ele>
        <time>2018-09-22T07:36:09Z</time>
      </trkpt>
      <trkpt lat="43.17489" lon="6.60361">
        <ele>9</ele>
        <time>2018-09-22T07:36:36Z</time>
      </trkpt>
      <trkpt lat="43.17484" lon="6.60348">
        <ele>8</ele>
        <time>2018-09-22T07:36:45Z</time>
      </trkpt>
      <trkpt lat="43.17483" lon="6.60333">
        <ele>8</ele>
        <time>2018-09-22T07:37:03Z</time>
      </trkpt>
      <trkpt lat="43.17484" lon="6.60326">
        <ele>8</ele>
        <time>2018-09-22T07:37:08Z</time>
      </trkpt>
      <trkpt lat="43.17483" lon="6.60319">
        <ele>8</ele>
        <time>2018-09-22T07:37:13Z</time>
      </trkpt>
      <trkpt lat="43.1748" lon="6.60311">
        <ele>8</ele>
        <time>2018-09-22T07:37:19Z</time>
      </trkpt>
      <trkpt lat="43.17477" lon="6.60307">
        <ele>8</ele>
        <time>2018-09-22T07:37:22Z</time>
      </trkpt>
      <trkpt lat="43.17456" lon="6.60303">
        <ele>8</ele>
        <time>2018-09-22T07:37:41Z</time>
      </trkpt>
      <trkpt lat="43.17451" lon="6.60304">
        <ele>8</ele>
        <time>2018-09-22T07:37:45Z</time>
      </trkpt>
      <trkpt lat="43.17439" lon="6.60314">
        <ele>8</ele>
        <time>2018-09-22T07:38:00Z</time>
      </trkpt>
      <trkpt lat="43.17432" lon="6.60318">
        <ele>8</ele>
        <time>2018-09-22T07:38:09Z</time>
      </trkpt>
      <trkpt lat="43.17427" lon="6.60317">
        <ele>8</ele>
        <time>2018-09-22T07:38:14Z</time>
      </trkpt>
      <trkpt lat="43.17422" lon="6.6032">
        <ele>8</ele>
        <time>2018-09-22T07:38:22Z</time>
      </trkpt>
      <trkpt lat="43.17415" lon="6.60326">
        <ele>9</ele>
        <time>2018-09-22T07:38:33Z</time>
      </trkpt>
      <trkpt lat="43.17411" lon="6.60338">
        <ele>9</ele>
        <time>2018-09-22T07:38:40Z</time>
      </trkpt>
      <trkpt lat="43.17407" lon="6.60339">
        <ele>9</ele>
        <time>2018-09-22T07:38:45Z</time>
      </trkpt>
      <trkpt lat="43.17404" lon="6.60347">
        <ele>9</ele>
        <time>2018-09-22T07:38:54Z</time>
      </trkpt>
      <trkpt lat="43.17405" lon="6.60361">
        <ele>9</ele>
        <time>2018-09-22T07:39:04Z</time>
      </trkpt>
      <trkpt lat="43.174" lon="6.60375">
        <ele>9</ele>
        <time>2018-09-22T07:39:15Z</time>
      </trkpt>
      <trkpt lat="43.17393" lon="6.60415">
        <ele>9</ele>
        <time>2018-09-22T07:39:43Z</time>
      </trkpt>
      <trkpt lat="43.1739" lon="6.60421">
        <ele>9</ele>
        <time>2018-09-22T07:39:49Z</time>
      </trkpt>
      <trkpt lat="43.17391" lon="6.6043">
        <ele>9</ele>
        <time>2018-09-22T07:40:04Z</time>
      </trkpt>
      <trkpt lat="43.17388" lon="6.6044">
        <ele>10</ele>
        <time>2018-09-22T07:40:15Z</time>
      </trkpt>
      <trkpt lat="43.17388" lon="6.60446">
        <ele>10</ele>
        <time>2018-09-22T07:40:20Z</time>
      </trkpt>
      <trkpt lat="43.17384" lon="6.60461">
        <ele>10</ele>
        <time>2018-09-22T07:40:32Z</time>
      </trkpt>
      <trkpt lat="43.17384" lon="6.6048">
        <ele>10</ele>
        <time>2018-09-22T07:40:44Z</time>
      </trkpt>
      <trkpt lat="43.1739" lon="6.60498">
        <ele>10</ele>
        <time>2018-09-22T07:41:00Z</time>
      </trkpt>
      <trkpt lat="43.1739" lon="6.60505">
        <ele>10</ele>
        <time>2018-09-22T07:41:07Z</time>
      </trkpt>
      <trkpt lat="43.17386" lon="6.60511">
        <ele>10</ele>
        <time>2018-09-22T07:41:12Z</time>
      </trkpt>
      <trkpt lat="43.17385" lon="6.60517">
        <ele>10</ele>
        <time>2018-09-22T07:41:16Z</time>
      </trkpt>
      <trkpt lat="43.17373" lon="6.60561">
        <ele>10</ele>
        <time>2018-09-22T07:41:50Z</time>
      </trkpt>
      <trkpt lat="43.17372" lon="6.60574">
        <ele>10</ele>
        <time>2018-09-22T07:41:58Z</time>
      </trkpt>
      <trkpt lat="43.17373" lon="6.60581">
        <ele>10</ele>
        <time>2018-09-22T07:42:03Z</time>
      </trkpt>
      <trkpt lat="43.17372" lon="6.60587">
        <ele>10</ele>
        <time>2018-09-22T07:42:07Z</time>
      </trkpt>
      <trkpt lat="43.17373" lon="6.60594">
        <ele>10</ele>
        <time>2018-09-22T07:42:14Z</time>
      </trkpt>
      <trkpt lat="43.17377" lon="6.60602">
        <ele>10</ele>
        <time>2018-09-22T07:42:24Z</time>
      </trkpt>
      <trkpt lat="43.17383" lon="6.60606">
        <ele>10</ele>
        <time>2018-09-22T07:42:34Z</time>
      </trkpt>
      <trkpt lat="43.1738" lon="6.6062">
        <ele>10</ele>
        <time>2018-09-22T07:42:46Z</time>
      </trkpt>
      <trkpt lat="43.17376" lon="6.60621">
        <ele>10</ele>
        <time>2018-09-22T07:42:56Z</time>
      </trkpt>
      <trkpt lat="43.17373" lon="6.60628">
        <ele>10</ele>
        <time>2018-09-22T07:43:07Z</time>
      </trkpt>
      <trkpt lat="43.17369" lon="6.60634">
        <ele>10</ele>
        <time>2018-09-22T07:43:17Z</time>
      </trkpt>
      <trkpt lat="43.17362" lon="6.60644">
        <ele>11</ele>
        <time>2018-09-22T07:43:28Z</time>
      </trkpt>
      <trkpt lat="43.17363" lon="6.60655">
        <ele>11</ele>
        <time>2018-09-22T07:43:50Z</time>
      </trkpt>
      <trkpt lat="43.17365" lon="6.60668">
        <ele>11</ele>
        <time>2018-09-22T07:44:01Z</time>
      </trkpt>
      <trkpt lat="43.17361" lon="6.60672">
        <ele>11</ele>
        <time>2018-09-22T07:44:06Z</time>
      </trkpt>
      <trkpt lat="43.17359" lon="6.60678">
        <ele>11</ele>
        <time>2018-09-22T07:44:10Z</time>
      </trkpt>
      <trkpt lat="43.17357" lon="6.60691">
        <ele>10</ele>
        <time>2018-09-22T07:44:18Z</time>
      </trkpt>
      <trkpt lat="43.17358" lon="6.60704">
        <ele>10</ele>
        <time>2018-09-22T07:44:26Z</time>
      </trkpt>
      <trkpt lat="43.17346" lon="6.60728">
        <ele>10</ele>
        <time>2018-09-22T07:44:46Z</time>
      </trkpt>
      <trkpt lat="43.17345" lon="6.60734">
        <ele>10</ele>
        <time>2018-09-22T07:44:51Z</time>
      </trkpt>
      <trkpt lat="43.17342" lon="6.60741">
        <ele>10</ele>
        <time>2018-09-22T07:44:56Z</time>
      </trkpt>
      <trkpt lat="43.17342" lon="6.60747">
        <ele>10</ele>
        <time>2018-09-22T07:45:00Z</time>
      </trkpt>
      <trkpt lat="43.17332" lon="6.60763">
        <ele>10</ele>
        <time>2018-09-22T07:45:15Z</time>
      </trkpt>
      <trkpt lat="43.1733" lon="6.60769">
        <ele>10</ele>
        <time>2018-09-22T07:45:20Z</time>
      </trkpt>
      <trkpt lat="43.17329" lon="6.60775">
        <ele>10</ele>
        <time>2018-09-22T07:45:25Z</time>
      </trkpt>
      <trkpt lat="43.17327" lon="6.60787">
        <ele>10</ele>
        <time>2018-09-22T07:45:35Z</time>
      </trkpt>
      <trkpt lat="43.17325" lon="6.60794">
        <ele>10</ele>
        <time>2018-09-22T07:45:40Z</time>
      </trkpt>
      <trkpt lat="43.17325" lon="6.6082">
        <ele>10</ele>
        <time>2018-09-22T07:45:56Z</time>
      </trkpt>
      <trkpt lat="43.17322" lon="6.60834">
        <ele>10</ele>
        <time>2018-09-22T07:46:05Z</time>
      </trkpt>
      <trkpt lat="43.17319" lon="6.60839">
        <ele>10</ele>
        <time>2018-09-22T07:46:43Z</time>
      </trkpt>
      <trkpt lat="43.17314" lon="6.60837">
        <ele>10</ele>
        <time>2018-09-22T07:46:48Z</time>
      </trkpt>
      <trkpt lat="43.17309" lon="6.60834">
        <ele>10</ele>
        <time>2018-09-22T07:46:52Z</time>
      </trkpt>
      <trkpt lat="43.17303" lon="6.60832">
        <ele>10</ele>
        <time>2018-09-22T07:46:56Z</time>
      </trkpt>
      <trkpt lat="43.17298" lon="6.60833">
        <ele>10</ele>
        <time>2018-09-22T07:47:00Z</time>
      </trkpt>
      <trkpt lat="43.17293" lon="6.60835">
        <ele>10</ele>
        <time>2018-09-22T07:47:04Z</time>
      </trkpt>
      <trkpt lat="43.17278" lon="6.60836">
        <ele>9</ele>
        <time>2018-09-22T07:47:18Z</time>
      </trkpt>
      <trkpt lat="43.17274" lon="6.60838">
        <ele>9</ele>
        <time>2018-09-22T07:47:22Z</time>
      </trkpt>
      <trkpt lat="43.17249" lon="6.60839">
        <ele>9</ele>
        <time>2018-09-22T07:47:43Z</time>
      </trkpt>
      <trkpt lat="43.1724" lon="6.60844">
        <ele>9</ele>
        <time>2018-09-22T07:47:51Z</time>
      </trkpt>
      <trkpt lat="43.17232" lon="6.60854">
        <ele>9</ele>
        <time>2018-09-22T07:48:00Z</time>
      </trkpt>
      <trkpt lat="43.17225" lon="6.6087">
        <ele>9</ele>
        <time>2018-09-22T07:48:15Z</time>
      </trkpt>
      <trkpt lat="43.17215" lon="6.60878">
        <ele>9</ele>
        <time>2018-09-22T07:48:27Z</time>
      </trkpt>
      <trkpt lat="43.17206" lon="6.60879">
        <ele>9</ele>
        <time>2018-09-22T07:48:36Z</time>
      </trkpt>
      <trkpt lat="43.17201" lon="6.60877">
        <ele>9</ele>
        <time>2018-09-22T07:48:40Z</time>
      </trkpt>
      <trkpt lat="43.17196" lon="6.60877">
        <ele>9</ele>
        <time>2018-09-22T07:48:44Z</time>
      </trkpt>
      <trkpt lat="43.17191" lon="6.6088">
        <ele>9</ele>
        <time>2018-09-22T07:48:49Z</time>
      </trkpt>
      <trkpt lat="43.17187" lon="6.60877">
        <ele>8</ele>
        <time>2018-09-22T07:48:54Z</time>
      </trkpt>
      <trkpt lat="43.17176" lon="6.60875">
        <ele>8</ele>
        <time>2018-09-22T07:49:09Z</time>
      </trkpt>
      <trkpt lat="43.17171" lon="6.60876">
        <ele>8</ele>
        <time>2018-09-22T07:49:13Z</time>
      </trkpt>
      <trkpt lat="43.17157" lon="6.60868">
        <ele>8</ele>
        <time>2018-09-22T07:49:26Z</time>
      </trkpt>
      <trkpt lat="43.17152" lon="6.60859">
        <ele>8</ele>
        <time>2018-09-22T07:49:34Z</time>
      </trkpt>
      <trkpt lat="43.17148" lon="6.60855">
        <ele>8</ele>
        <time>2018-09-22T07:49:38Z</time>
      </trkpt>
      <trkpt lat="43.17144" lon="6.60853">
        <ele>8</ele>
        <time>2018-09-22T07:49:41Z</time>
      </trkpt>
      <trkpt lat="43.17135" lon="6.60845">
        <ele>8</ele>
        <time>2018-09-22T07:49:51Z</time>
      </trkpt>
      <trkpt lat="43.17128" lon="6.60843">
        <ele>8</ele>
        <time>2018-09-22T07:49:58Z</time>
      </trkpt>
      <trkpt lat="43.17124" lon="6.6085">
        <ele>8</ele>
        <time>2018-09-22T07:50:10Z</time>
      </trkpt>
      <trkpt lat="43.1712" lon="6.60849">
        <ele>8</ele>
        <time>2018-09-22T07:50:15Z</time>
      </trkpt>
      <trkpt lat="43.17116" lon="6.60854">
        <ele>8</ele>
        <time>2018-09-22T07:50:22Z</time>
      </trkpt>
      <trkpt lat="43.17092" lon="6.60863">
        <ele>9</ele>
        <time>2018-09-22T07:51:03Z</time>
      </trkpt>
      <trkpt lat="43.1708" lon="6.60866">
        <ele>9</ele>
        <time>2018-09-22T07:51:18Z</time>
      </trkpt>
      <trkpt lat="43.17075" lon="6.60865">
        <ele>9</ele>
        <time>2018-09-22T07:51:22Z</time>
      </trkpt>
      <trkpt lat="43.17071" lon="6.6087">
        <ele>9</ele>
        <time>2018-09-22T07:51:31Z</time>
      </trkpt>
      <trkpt lat="43.17068" lon="6.60877">
        <ele>9</ele>
        <time>2018-09-22T07:51:41Z</time>
      </trkpt>
      <trkpt lat="43.17059" lon="6.60887">
        <ele>9</ele>
        <time>2018-09-22T07:51:55Z</time>
      </trkpt>
      <trkpt lat="43.17041" lon="6.60899">
        <ele>9</ele>
        <time>2018-09-22T07:52:19Z</time>
      </trkpt>
      <trkpt lat="43.17037" lon="6.60903">
        <ele>10</ele>
        <time>2018-09-22T07:52:23Z</time>
      </trkpt>
      <trkpt lat="43.17035" lon="6.60909">
        <ele>10</ele>
        <time>2018-09-22T07:52:28Z</time>
      </trkpt>
      <trkpt lat="43.17031" lon="6.60933">
        <ele>10</ele>
        <time>2018-09-22T07:52:45Z</time>
      </trkpt>
      <trkpt lat="43.17028" lon="6.60938">
        <ele>10</ele>
        <time>2018-09-22T07:52:49Z</time>
      </trkpt>
      <trkpt lat="43.17023" lon="6.60942">
        <ele>10</ele>
        <time>2018-09-22T07:52:53Z</time>
      </trkpt>
      <trkpt lat="43.17011" lon="6.60956">
        <ele>10</ele>
        <time>2018-09-22T07:53:28Z</time>
      </trkpt>
      <trkpt lat="43.17009" lon="6.60964">
        <ele>10</ele>
        <time>2018-09-22T07:53:33Z</time>
      </trkpt>
      <trkpt lat="43.17006" lon="6.60968">
        <ele>10</ele>
        <time>2018-09-22T07:53:37Z</time>
      </trkpt>
      <trkpt lat="43.16995" lon="6.60969">
        <ele>10</ele>
        <time>2018-09-22T07:53:45Z</time>
      </trkpt>
      <trkpt lat="43.16993" lon="6.60975">
        <ele>10</ele>
        <time>2018-09-22T07:53:50Z</time>
      </trkpt>
      <trkpt lat="43.16968" lon="6.60986">
        <ele>11</ele>
        <time>2018-09-22T07:54:11Z</time>
      </trkpt>
      <trkpt lat="43.1696" lon="6.60994">
        <ele>11</ele>
        <time>2018-09-22T07:54:19Z</time>
      </trkpt>
      <trkpt lat="43.16958" lon="6.61">
        <ele>11</ele>
        <time>2018-09-22T07:54:24Z</time>
      </trkpt>
      <trkpt lat="43.16954" lon="6.61001">
        <ele>11</ele>
        <time>2018-09-22T07:54:28Z</time>
      </trkpt>
      <trkpt lat="43.1695" lon="6.61007">
        <ele>11</ele>
        <time>2018-09-22T07:54:33Z</time>
      </trkpt>
      <trkpt lat="43.16948" lon="6.61017">
        <ele>11</ele>
        <time>2018-09-22T07:54:42Z</time>
      </trkpt>
      <trkpt lat="43.16945" lon="6.61027">
        <ele>11</ele>
        <time>2018-09-22T07:54:53Z</time>
      </trkpt>
      <trkpt lat="43.16938" lon="6.61032">
        <ele>11</ele>
        <time>2018-09-22T07:55:03Z</time>
      </trkpt>
      <trkpt lat="43.16931" lon="6.61041">
        <ele>11</ele>
        <time>2018-09-22T07:55:13Z</time>
      </trkpt>
      <trkpt lat="43.16932" lon="6.61051">
        <ele>11</ele>
        <time>2018-09-22T07:55:22Z</time>
      </trkpt>
      <trkpt lat="43.16934" lon="6.61057">
        <ele>11</ele>
        <time>2018-09-22T07:55:30Z</time>
      </trkpt>
      <trkpt lat="43.16933" lon="6.61067">
        <ele>12</ele>
        <time>2018-09-22T07:55:45Z</time>
      </trkpt>
      <trkpt lat="43.16924" lon="6.61084">
        <ele>12</ele>
        <time>2018-09-22T07:56:16Z</time>
      </trkpt>
      <trkpt lat="43.16924" lon="6.61092">
        <ele>12</ele>
        <time>2018-09-22T07:56:26Z</time>
      </trkpt>
      <trkpt lat="43.16927" lon="6.61098">
        <ele>12</ele>
        <time>2018-09-22T07:56:41Z</time>
      </trkpt>
      <trkpt lat="43.16931" lon="6.61102">
        <ele>12</ele>
        <time>2018-09-22T07:56:51Z</time>
      </trkpt>
      <trkpt lat="43.16937" lon="6.61131">
        <ele>12</ele>
        <time>2018-09-22T07:57:21Z</time>
      </trkpt>
      <trkpt lat="43.16939" lon="6.61137">
        <ele>13</ele>
        <time>2018-09-22T07:57:27Z</time>
      </trkpt>
      <trkpt lat="43.16935" lon="6.61148">
        <ele>13</ele>
        <time>2018-09-22T07:57:39Z</time>
      </trkpt>
      <trkpt lat="43.16935" lon="6.61154">
        <ele>13</ele>
        <time>2018-09-22T07:57:54Z</time>
      </trkpt>
      <trkpt lat="43.16935" lon="6.61166">
        <ele>13</ele>
        <time>2018-09-22T07:58:05Z</time>
      </trkpt>
      <trkpt lat="43.16935" lon="6.61172">
        <ele>13</ele>
        <time>2018-09-22T07:58:10Z</time>
      </trkpt>
      <trkpt lat="43.16939" lon="6.61176">
        <ele>13</ele>
        <time>2018-09-22T07:58:17Z</time>
      </trkpt>
      <trkpt lat="43.16931" lon="6.61195">
        <ele>13</ele>
        <time>2018-09-22T07:58:59Z</time>
      </trkpt>
      <trkpt lat="43.16915" lon="6.61221">
        <ele>14</ele>
        <time>2018-09-22T07:59:23Z</time>
      </trkpt>
      <trkpt lat="43.16906" lon="6.61267">
        <ele>14</ele>
        <time>2018-09-22T07:59:54Z</time>
      </trkpt>
      <trkpt lat="43.16893" lon="6.61279">
        <ele>14</ele>
        <time>2018-09-22T08:00:29Z</time>
      </trkpt>
      <trkpt lat="43.16862" lon="6.61313">
        <ele>15</ele>
        <time>2018-09-22T08:01:03Z</time>
      </trkpt>
      <trkpt lat="43.1685" lon="6.61325">
        <ele>15</ele>
        <time>2018-09-22T08:01:28Z</time>
      </trkpt>
      <trkpt lat="43.16846" lon="6.61327">
        <ele>15</ele>
        <time>2018-09-22T08:01:35Z</time>
      </trkpt>
      <trkpt lat="43.16841" lon="6.61332">
        <ele>15</ele>
        <time>2018-09-22T08:01:56Z</time>
      </trkpt>
      <trkpt lat="43.16834" lon="6.6134">
        <ele>15</ele>
        <time>2018-09-22T08:02:05Z</time>
      </trkpt>
      <trkpt lat="43.16829" lon="6.61344">
        <ele>15</ele>
        <time>2018-09-22T08:02:09Z</time>
      </trkpt>
      <trkpt lat="43.16825" lon="6.61348">
        <ele>15</ele>
        <time>2018-09-22T08:02:13Z</time>
      </trkpt>
      <trkpt lat="43.16814" lon="6.61358">
        <ele>16</ele>
        <time>2018-09-22T08:02:38Z</time>
      </trkpt>
      <trkpt lat="43.16794" lon="6.61384">
        <ele>16</ele>
        <time>2018-09-22T08:02:59Z</time>
      </trkpt>
      <trkpt lat="43.16778" lon="6.61414">
        <ele>16</ele>
        <time>2018-09-22T08:03:19Z</time>
      </trkpt>
      <trkpt lat="43.16775" lon="6.61426">
        <ele>16</ele>
        <time>2018-09-22T08:03:26Z</time>
      </trkpt>
      <trkpt lat="43.16775" lon="6.61432">
        <ele>16</ele>
        <time>2018-09-22T08:03:31Z</time>
      </trkpt>
      <trkpt lat="43.16768" lon="6.61443">
        <ele>16</ele>
        <time>2018-09-22T08:03:40Z</time>
      </trkpt>
      <trkpt lat="43.16761" lon="6.61471">
        <ele>16</ele>
        <time>2018-09-22T08:03:56Z</time>
      </trkpt>
      <trkpt lat="43.16761" lon="6.61479">
        <ele>16</ele>
        <time>2018-09-22T08:04:01Z</time>
      </trkpt>
      <trkpt lat="43.16756" lon="6.6149">
        <ele>17</ele>
        <time>2018-09-22T08:04:10Z</time>
      </trkpt>
      <trkpt lat="43.16752" lon="6.61501">
        <ele>17</ele>
        <time>2018-09-22T08:04:23Z</time>
      </trkpt>
      <trkpt lat="43.16753" lon="6.61508">
        <ele>17</ele>
        <time>2018-09-22T08:04:28Z</time>
      </trkpt>
      <trkpt lat="43.16748" lon="6.61521">
        <ele>17</ele>
        <time>2018-09-22T08:04:37Z</time>
      </trkpt>
      <trkpt lat="43.16749" lon="6.61527">
        <ele>17</ele>
        <time>2018-09-22T08:04:42Z</time>
      </trkpt>
      <trkpt lat="43.16744" lon="6.61532">
        <ele>17</ele>
        <time>2018-09-22T08:04:47Z</time>
      </trkpt>
      <trkpt lat="43.16735" lon="6.61565">
        <ele>17</ele>
        <time>2018-09-22T08:05:09Z</time>
      </trkpt>
      <trkpt lat="43.16736" lon="6.61572">
        <ele>17</ele>
        <time>2018-09-22T08:05:14Z</time>
      </trkpt>
      <trkpt lat="43.16733" lon="6.61586">
        <ele>17</ele>
        <time>2018-09-22T08:05:23Z</time>
      </trkpt>
      <trkpt lat="43.16727" lon="6.61598">
        <ele>17</ele>
        <time>2018-09-22T08:05:31Z</time>
      </trkpt>
      <trkpt lat="43.16696" lon="6.61626">
        <ele>18</ele>
        <time>2018-09-22T08:06:01Z</time>
      </trkpt>
      <trkpt lat="43.16692" lon="6.61636">
        <ele>18</ele>
        <time>2018-09-22T08:06:18Z</time>
      </trkpt>
      <trkpt lat="43.16688" lon="6.6164">
        <ele>18</ele>
        <time>2018-09-22T08:06:22Z</time>
      </trkpt>
      <trkpt lat="43.16663" lon="6.61653">
        <ele>18</ele>
        <time>2018-09-22T08:06:40Z</time>
      </trkpt>
      <trkpt lat="43.16658" lon="6.61653">
        <ele>18</ele>
        <time>2018-09-22T08:06:44Z</time>
      </trkpt>
      <trkpt lat="43.16642" lon="6.61662">
        <ele>18</ele>
        <time>2018-09-22T08:06:56Z</time>
      </trkpt>
      <trkpt lat="43.16639" lon="6.61667">
        <ele>18</ele>
        <time>2018-09-22T08:07:00Z</time>
      </trkpt>
      <trkpt lat="43.1663" lon="6.61684">
        <ele>18</ele>
        <time>2018-09-22T08:07:13Z</time>
      </trkpt>
      <trkpt lat="43.16626" lon="6.61691">
        <ele>19</ele>
        <time>2018-09-22T08:08:25Z</time>
      </trkpt>
      <trkpt lat="43.16623" lon="6.61695">
        <ele>19</ele>
        <time>2018-09-22T08:08:30Z</time>
      </trkpt>
      <trkpt lat="43.1662" lon="6.617">
        <ele>19</ele>
        <time>2018-09-22T08:08:35Z</time>
      </trkpt>
      <trkpt lat="43.16607" lon="6.61711">
        <ele>19</ele>
        <time>2018-09-22T08:08:49Z</time>
      </trkpt>
      <trkpt lat="43.16594" lon="6.61735">
        <ele>20</ele>
        <time>2018-09-22T08:09:22Z</time>
      </trkpt>
      <trkpt lat="43.1659" lon="6.6174">
        <ele>20</ele>
        <time>2018-09-22T08:09:26Z</time>
      </trkpt>
      <trkpt lat="43.16585" lon="6.61744">
        <ele>20</ele>
        <time>2018-09-22T08:09:30Z</time>
      </trkpt>
      <trkpt lat="43.16582" lon="6.6175">
        <ele>20</ele>
        <time>2018-09-22T08:09:34Z</time>
      </trkpt>
      <trkpt lat="43.16564" lon="6.61762">
        <ele>20</ele>
        <time>2018-09-22T08:09:50Z</time>
      </trkpt>
      <trkpt lat="43.16556" lon="6.61769">
        <ele>20</ele>
        <time>2018-09-22T08:09:58Z</time>
      </trkpt>
      <trkpt lat="43.16551" lon="6.61769">
        <ele>20</ele>
        <time>2018-09-22T08:10:02Z</time>
      </trkpt>
      <trkpt lat="43.16548" lon="6.61774">
        <ele>20</ele>
        <time>2018-09-22T08:10:06Z</time>
      </trkpt>
      <trkpt lat="43.16543" lon="6.61776">
        <ele>20</ele>
        <time>2018-09-22T08:10:11Z</time>
      </trkpt>
      <trkpt lat="43.16532" lon="6.61774">
        <ele>20</ele>
        <time>2018-09-22T08:10:19Z</time>
      </trkpt>
      <trkpt lat="43.16528" lon="6.61778">
        <ele>20</ele>
        <time>2018-09-22T08:10:23Z</time>
      </trkpt>
      <trkpt lat="43.16525" lon="6.61785">
        <ele>20</ele>
        <time>2018-09-22T08:10:27Z</time>
      </trkpt>
      <trkpt lat="43.16521" lon="6.61789">
        <ele>20</ele>
        <time>2018-09-22T08:10:31Z</time>
      </trkpt>
      <trkpt lat="43.1652" lon="6.61801">
        <ele>21</ele>
        <time>2018-09-22T08:10:46Z</time>
      </trkpt>
      <trkpt lat="43.16516" lon="6.61804">
        <ele>21</ele>
        <time>2018-09-22T08:10:51Z</time>
      </trkpt>
      <trkpt lat="43.16504" lon="6.61804">
        <ele>21</ele>
        <time>2018-09-22T08:10:59Z</time>
      </trkpt>
      <trkpt lat="43.16499" lon="6.61806">
        <ele>21</ele>
        <time>2018-09-22T08:11:03Z</time>
      </trkpt>
      <trkpt lat="43.16484" lon="6.61818">
        <ele>21</ele>
        <time>2018-09-22T08:11:15Z</time>
      </trkpt>
      <trkpt lat="43.16449" lon="6.61827">
        <ele>21</ele>
        <time>2018-09-22T08:11:47Z</time>
      </trkpt>
      <trkpt lat="43.1643" lon="6.61843">
        <ele>21</ele>
        <time>2018-09-22T08:12:02Z</time>
      </trkpt>
      <trkpt lat="43.16422" lon="6.61852">
        <ele>21</ele>
        <time>2018-09-22T08:12:09Z</time>
      </trkpt>
      <trkpt lat="43.16417" lon="6.61855">
        <ele>21</ele>
        <time>2018-09-22T08:12:13Z</time>
      </trkpt>
      <trkpt lat="43.16401" lon="6.61859">
        <ele>21</ele>
        <time>2018-09-22T08:12:22Z</time>
      </trkpt>
      <trkpt lat="43.16389" lon="6.61859">
        <ele>22</ele>
        <time>2018-09-22T08:12:28Z</time>
      </trkpt>
      <trkpt lat="43.16377" lon="6.61862">
        <ele>22</ele>
        <time>2018-09-22T08:12:34Z</time>
      </trkpt>
      <trkpt lat="43.16366" lon="6.6187">
        <ele>22</ele>
        <time>2018-09-22T08:12:40Z</time>
      </trkpt>
      <trkpt lat="43.16354" lon="6.61875">
        <ele>22</ele>
        <time>2018-09-22T08:12:46Z</time>
      </trkpt>
      <trkpt lat="43.16319" lon="6.61897">
        <ele>22</ele>
        <time>2018-09-22T08:13:12Z</time>
      </trkpt>
      <trkpt lat="43.16309" lon="6.61899">
        <ele>22</ele>
        <time>2018-09-22T08:13:19Z</time>
      </trkpt>
      <trkpt lat="43.16282" lon="6.61892">
        <ele>22</ele>
        <time>2018-09-22T08:13:39Z</time>
      </trkpt>
      <trkpt lat="43.16278" lon="6.61895">
        <ele>22</ele>
        <time>2018-09-22T08:13:43Z</time>
      </trkpt>
      <trkpt lat="43.1627" lon="6.61907">
        <ele>22</ele>
        <time>2018-09-22T08:13:51Z</time>
      </trkpt>
      <trkpt lat="43.16235" lon="6.61942">
        <ele>23</ele>
        <time>2018-09-22T08:14:23Z</time>
      </trkpt>
      <trkpt lat="43.16212" lon="6.61943">
        <ele>23</ele>
        <time>2018-09-22T08:14:51Z</time>
      </trkpt>
      <trkpt lat="43.16206" lon="6.61945">
        <ele>23</ele>
        <time>2018-09-22T08:14:58Z</time>
      </trkpt>
      <trkpt lat="43.16196" lon="6.61951">
        <ele>23</ele>
        <time>2018-09-22T08:15:07Z</time>
      </trkpt>
      <trkpt lat="43.16191" lon="6.61952">
        <ele>23</ele>
        <time>2018-09-22T08:15:11Z</time>
      </trkpt>
      <trkpt lat="43.16181" lon="6.6195">
        <ele>23</ele>
        <time>2018-09-22T08:15:19Z</time>
      </trkpt>
      <trkpt lat="43.16157" lon="6.61941">
        <ele>23</ele>
        <time>2018-09-22T08:15:40Z</time>
      </trkpt>
      <trkpt lat="43.16147" lon="6.61941">
        <ele>24</ele>
        <time>2018-09-22T08:15:47Z</time>
      </trkpt>
      <trkpt lat="43.16141" lon="6.61943">
        <ele>24</ele>
        <time>2018-09-22T08:15:51Z</time>
      </trkpt>
      <trkpt lat="43.16127" lon="6.61955">
        <ele>24</ele>
        <time>2018-09-22T08:16:03Z</time>
      </trkpt>
      <trkpt lat="43.16124" lon="6.61959">
        <ele>24</ele>
        <time>2018-09-22T08:16:06Z</time>
      </trkpt>
      <trkpt lat="43.16121" lon="6.61966">
        <ele>24</ele>
        <time>2018-09-22T08:16:10Z</time>
      </trkpt>
      <trkpt lat="43.1612" lon="6.61973">
        <ele>24</ele>
        <time>2018-09-22T08:16:14Z</time>
      </trkpt>
      <trkpt lat="43.1612" lon="6.6198">
        <ele>24</ele>
        <time>2018-09-22T08:16:18Z</time>
      </trkpt>
      <trkpt lat="43.16117" lon="6.61986">
        <ele>24</ele>
        <time>2018-09-22T08:16:22Z</time>
      </trkpt>
      <trkpt lat="43.16112" lon="6.61986">
        <ele>24</ele>
        <time>2018-09-22T08:16:26Z</time>
      </trkpt>
      <trkpt lat="43.16097" lon="6.61976">
        <ele>24</ele>
        <time>2018-09-22T08:16:37Z</time>
      </trkpt>
      <trkpt lat="43.1607" lon="6.61978">
        <ele>24</ele>
        <time>2018-09-22T08:16:51Z</time>
      </trkpt>
      <trkpt lat="43.16065" lon="6.6198">
        <ele>24</ele>
        <time>2018-09-22T08:16:55Z</time>
      </trkpt>
      <trkpt lat="43.16061" lon="6.61983">
        <ele>24</ele>
        <time>2018-09-22T08:16:59Z</time>
      </trkpt>
      <trkpt lat="43.16057" lon="6.6198">
        <ele>24</ele>
        <time>2018-09-22T08:17:04Z</time>
      </trkpt>
      <trkpt lat="43.16053" lon="6.61975">
        <ele>24</ele>
        <time>2018-09-22T08:17:08Z</time>
      </trkpt>
      <trkpt lat="43.16046" lon="6.61977">
        <ele>24</ele>
        <time>2018-09-22T08:17:18Z</time>
      </trkpt>
      <trkpt lat="43.16044" lon="6.61982">
        <ele>24</ele>
        <time>2018-09-22T08:17:22Z</time>
      </trkpt>
      <trkpt lat="43.16039" lon="6.61984">
        <ele>25</ele>
        <time>2018-09-22T08:17:26Z</time>
      </trkpt>
      <trkpt lat="43.16031" lon="6.61994">
        <ele>25</ele>
        <time>2018-09-22T08:17:34Z</time>
      </trkpt>
      <trkpt lat="43.16021" lon="6.61995">
        <ele>25</ele>
        <time>2018-09-22T08:17:42Z</time>
      </trkpt>
      <trkpt lat="43.16015" lon="6.6199">
        <ele>25</ele>
        <time>2018-09-22T08:18:04Z</time>
      </trkpt>
      <trkpt lat="43.1601" lon="6.61992">
        <ele>25</ele>
        <time>2018-09-22T08:18:09Z</time>
      </trkpt>
      <trkpt lat="43.16001" lon="6.62001">
        <ele>25</ele>
        <time>2018-09-22T08:18:59Z</time>
      </trkpt>
      <trkpt lat="43.16002" lon="6.62009">
        <ele>26</ele>
        <time>2018-09-22T08:19:07Z</time>
      </trkpt>
      <trkpt lat="43.16006" lon="6.6201">
        <ele>26</ele>
        <time>2018-09-22T08:19:11Z</time>
      </trkpt>
      <trkpt lat="43.16013" lon="6.62013">
        <ele>26</ele>
        <time>2018-09-22T08:19:36Z</time>
      </trkpt>
      <trkpt lat="43.16015" lon="6.6202">
        <ele>26</ele>
        <time>2018-09-22T08:19:40Z</time>
      </trkpt>
      <trkpt lat="43.16021" lon="6.62023">
        <ele>26</ele>
        <time>2018-09-22T08:19:50Z</time>
      </trkpt>
      <trkpt lat="43.16031" lon="6.62031">
        <ele>26</ele>
        <time>2018-09-22T08:20:14Z</time>
      </trkpt>
      <trkpt lat="43.16036" lon="6.62042">
        <ele>26</ele>
        <time>2018-09-22T08:20:24Z</time>
      </trkpt>
      <trkpt lat="43.16038" lon="6.62051">
        <ele>26</ele>
        <time>2018-09-22T08:20:32Z</time>
      </trkpt>
      <trkpt lat="43.16041" lon="6.6206">
        <ele>26</ele>
        <time>2018-09-22T08:20:42Z</time>
      </trkpt>
      <trkpt lat="43.16045" lon="6.62064">
        <ele>27</ele>
        <time>2018-09-22T08:20:46Z</time>
      </trkpt>
      <trkpt lat="43.16054" lon="6.62083">
        <ele>27</ele>
        <time>2018-09-22T08:21:00Z</time>
      </trkpt>
      <trkpt lat="43.16058" lon="6.62086">
        <ele>27</ele>
        <time>2018-09-22T08:21:04Z</time>
      </trkpt>
      <trkpt lat="43.16064" lon="6.62097">
        <ele>27</ele>
        <time>2018-09-22T08:21:13Z</time>
      </trkpt>
      <trkpt lat="43.16069" lon="6.62119">
        <ele>27</ele>
        <time>2018-09-22T08:21:32Z</time>
      </trkpt>
      <trkpt lat="43.16071" lon="6.62125">
        <ele>27</ele>
        <time>2018-09-22T08:21:38Z</time>
      </trkpt>
      <trkpt lat="43.16067" lon="6.62143">
        <ele>27</ele>
        <time>2018-09-22T08:21:58Z</time>
      </trkpt>
      <trkpt lat="43.16068" lon="6.62152">
        <ele>27</ele>
        <time>2018-09-22T08:22:21Z</time>
      </trkpt>
      <trkpt lat="43.16071" lon="6.62158">
        <ele>28</ele>
        <time>2018-09-22T08:22:25Z</time>
      </trkpt>
      <trkpt lat="43.16079" lon="6.62166">
        <ele>28</ele>
        <time>2018-09-22T08:22:35Z</time>
      </trkpt>
      <trkpt lat="43.16081" lon="6.62173">
        <ele>28</ele>
        <time>2018-09-22T08:22:43Z</time>
      </trkpt>
      <trkpt lat="43.16085" lon="6.62178">
        <ele>28</ele>
        <time>2018-09-22T08:22:48Z</time>
      </trkpt>
      <trkpt lat="43.16089" lon="6.62181">
        <ele>28</ele>
        <time>2018-09-22T08:22:52Z</time>
      </trkpt>
      <trkpt lat="43.16094" lon="6.62182">
        <ele>28</ele>
        <time>2018-09-22T08:22:57Z</time>
      </trkpt>
      <trkpt lat="43.16099" lon="6.62189">
        <ele>28</ele>
        <time>2018-09-22T08:23:04Z</time>
      </trkpt>
      <trkpt lat="43.16121" lon="6.62203">
        <ele>28</ele>
        <time>2018-09-22T08:23:30Z</time>
      </trkpt>
      <trkpt lat="43.16141" lon="6.62207">
        <ele>28</ele>
        <time>2018-09-22T08:23:57Z</time>
      </trkpt>
      <trkpt lat="43.1615" lon="6.62197">
        <ele>28</ele>
        <time>2018-09-22T08:24:05Z</time>
      </trkpt>
      <trkpt lat="43.16152" lon="6.62192">
        <ele>28</ele>
        <time>2018-09-22T08:24:08Z</time>
      </trkpt>
      <trkpt lat="43.16157" lon="6.62191">
        <ele>28</ele>
        <time>2018-09-22T08:24:12Z</time>
      </trkpt>
      <trkpt lat="43.16174" lon="6.62198">
        <ele>28</ele>
        <time>2018-09-22T08:24:24Z</time>
      </trkpt>
      <trkpt lat="43.16179" lon="6.62195">
        <ele>28</ele>
        <time>2018-09-22T08:24:28Z</time>
      </trkpt>
      <trkpt lat="43.16181" lon="6.62188">
        <ele>28</ele>
        <time>2018-09-22T08:24:32Z</time>
      </trkpt>
      <trkpt lat="43.16185" lon="6.62183">
        <ele>28</ele>
        <time>2018-09-22T08:24:36Z</time>
      </trkpt>
      <trkpt lat="43.16188" lon="6.62178">
        <ele>28</ele>
        <time>2018-09-22T08:24:58Z</time>
      </trkpt>
      <trkpt lat="43.16193" lon="6.62174">
        <ele>27</ele>
        <time>2018-09-22T08:25:02Z</time>
      </trkpt>
      <trkpt lat="43.162" lon="6.62166">
        <ele>27</ele>
        <time>2018-09-22T08:25:11Z</time>
      </trkpt>
      <trkpt lat="43.16202" lon="6.6216">
        <ele>27</ele>
        <time>2018-09-22T08:25:16Z</time>
      </trkpt>
      <trkpt lat="43.1622" lon="6.62162">
        <ele>27</ele>
        <time>2018-09-22T08:25:36Z</time>
      </trkpt>
      <trkpt lat="43.16225" lon="6.6216">
        <ele>27</ele>
        <time>2018-09-22T08:25:40Z</time>
      </trkpt>
      <trkpt lat="43.1623" lon="6.62155">
        <ele>27</ele>
        <time>2018-09-22T08:25:44Z</time>
      </trkpt>
      <trkpt lat="43.16234" lon="6.62143">
        <ele>27</ele>
        <time>2018-09-22T08:25:52Z</time>
      </trkpt>
      <trkpt lat="43.16239" lon="6.62138">
        <ele>27</ele>
        <time>2018-09-22T08:25:58Z</time>
      </trkpt>
      <trkpt lat="43.16242" lon="6.62133">
        <ele>27</ele>
        <time>2018-09-22T08:26:03Z</time>
      </trkpt>
      <trkpt lat="43.16252" lon="6.62127">
        <ele>27</ele>
        <time>2018-09-22T08:26:13Z</time>
      </trkpt>
      <trkpt lat="43.16257" lon="6.62128">
        <ele>27</ele>
        <time>2018-09-22T08:26:20Z</time>
      </trkpt>
      <trkpt lat="43.16262" lon="6.62126">
        <ele>27</ele>
        <time>2018-09-22T08:26:26Z</time>
      </trkpt>
      <trkpt lat="43.16281" lon="6.62124">
        <ele>26</ele>
        <time>2018-09-22T08:26:43Z</time>
      </trkpt>
      <trkpt lat="43.16288" lon="6.62123">
        <ele>26</ele>
        <time>2018-09-22T08:27:32Z</time>
      </trkpt>
      <trkpt lat="43.16292" lon="6.62126">
        <ele>26</ele>
        <time>2018-09-22T08:27:37Z</time>
      </trkpt>
      <trkpt lat="43.16298" lon="6.62126">
        <ele>26</ele>
        <time>2018-09-22T08:27:42Z</time>
      </trkpt>
      <trkpt lat="43.16302" lon="6.62128">
        <ele>26</ele>
        <time>2018-09-22T08:27:47Z</time>
      </trkpt>
      <trkpt lat="43.16309" lon="6.62128">
        <ele>26</ele>
        <time>2018-09-22T08:27:55Z</time>
      </trkpt>
      <trkpt lat="43.16319" lon="6.6213">
        <ele>26</ele>
        <time>2018-09-22T08:28:04Z</time>
      </trkpt>
      <trkpt lat="43.16323" lon="6.62135">
        <ele>26</ele>
        <time>2018-09-22T08:28:09Z</time>
      </trkpt>
      <trkpt lat="43.16339" lon="6.62145">
        <ele>25</ele>
        <time>2018-09-22T08:28:28Z</time>
      </trkpt>
      <trkpt lat="43.16346" lon="6.62144">
        <ele>25</ele>
        <time>2018-09-22T08:28:35Z</time>
      </trkpt>
      <trkpt lat="43.1635" lon="6.62141">
        <ele>25</ele>
        <time>2018-09-22T08:28:40Z</time>
      </trkpt>
      <trkpt lat="43.16359" lon="6.62141">
        <ele>25</ele>
        <time>2018-09-22T08:28:49Z</time>
      </trkpt>
      <trkpt lat="43.16378" lon="6.62148">
        <ele>25</ele>
        <time>2018-09-22T08:29:06Z</time>
      </trkpt>
      <trkpt lat="43.16381" lon="6.62155">
        <ele>25</ele>
        <time>2018-09-22T08:29:13Z</time>
      </trkpt>
      <trkpt lat="43.16386" lon="6.62158">
        <ele>25</ele>
        <time>2018-09-22T08:29:17Z</time>
      </trkpt>
      <trkpt lat="43.16389" lon="6.62171">
        <ele>25</ele>
        <time>2018-09-22T08:29:26Z</time>
      </trkpt>
      <trkpt lat="43.16406" lon="6.62175">
        <ele>25</ele>
        <time>2018-09-22T08:29:46Z</time>
      </trkpt>
      <trkpt lat="43.16411" lon="6.62178">
        <ele>25</ele>
        <time>2018-09-22T08:29:50Z</time>
      </trkpt>
      <trkpt lat="43.16417" lon="6.62177">
        <ele>24</ele>
        <time>2018-09-22T08:30:05Z</time>
      </trkpt>
      <trkpt lat="43.16428" lon="6.62177">
        <ele>24</ele>
        <time>2018-09-22T08:30:15Z</time>
      </trkpt>
      <trkpt lat="43.16432" lon="6.62179">
        <ele>24</ele>
        <time>2018-09-22T08:30:20Z</time>
      </trkpt>
      <trkpt lat="43.16437" lon="6.62185">
        <ele>24</ele>
        <time>2018-09-22T08:30:27Z</time>
      </trkpt>
      <trkpt lat="43.16451" lon="6.62192">
        <ele>24</ele>
        <time>2018-09-22T08:30:39Z</time>
      </trkpt>
      <trkpt lat="43.16456" lon="6.62193">
        <ele>24</ele>
        <time>2018-09-22T08:30:43Z</time>
      </trkpt>
      <trkpt lat="43.16486" lon="6.62223">
        <ele>24</ele>
        <time>2018-09-22T08:31:11Z</time>
      </trkpt>
      <trkpt lat="43.16488" lon="6.6223">
        <ele>24</ele>
        <time>2018-09-22T08:31:16Z</time>
      </trkpt>
      <trkpt lat="43.16493" lon="6.62233">
        <ele>24</ele>
        <time>2018-09-22T08:31:20Z</time>
      </trkpt>
      <trkpt lat="43.16499" lon="6.62235">
        <ele>24</ele>
        <time>2018-09-22T08:31:24Z</time>
      </trkpt>
      <trkpt lat="43.16503" lon="6.62239">
        <ele>24</ele>
        <time>2018-09-22T08:31:28Z</time>
      </trkpt>
      <trkpt lat="43.16508" lon="6.6225">
        <ele>24</ele>
        <time>2018-09-22T08:31:36Z</time>
      </trkpt>
      <trkpt lat="43.16518" lon="6.62256">
        <ele>23</ele>
        <time>2018-09-22T08:31:45Z</time>
      </trkpt>
      <trkpt lat="43.1652" lon="6.6227">
        <ele>23</ele>
        <time>2018-09-22T08:32:02Z</time>
      </trkpt>
      <trkpt lat="43.16527" lon="6.62275">
        <ele>23</ele>
        <time>2018-09-22T08:32:32Z</time>
      </trkpt>
      <trkpt lat="43.16537" lon="6.62277">
        <ele>23</ele>
        <time>2018-09-22T08:32:42Z</time>
      </trkpt>
      <trkpt lat="43.16539" lon="6.62285">
        <ele>23</ele>
        <time>2018-09-22T08:32:49Z</time>
      </trkpt>
      <trkpt lat="43.16549" lon="6.62292">
        <ele>23</ele>
        <time>2018-09-22T08:32:59Z</time>
      </trkpt>
      <trkpt lat="43.16557" lon="6.62301">
        <ele>23</ele>
        <time>2018-09-22T08:33:08Z</time>
      </trkpt>
      <trkpt lat="43.16561" lon="6.62304">
        <ele>23</ele>
        <time>2018-09-22T08:33:13Z</time>
      </trkpt>
      <trkpt lat="43.16565" lon="6.6231">
        <ele>23</ele>
        <time>2018-09-22T08:33:18Z</time>
      </trkpt>
      <trkpt lat="43.16566" lon="6.62317">
        <ele>22</ele>
        <time>2018-09-22T08:33:23Z</time>
      </trkpt>
      <trkpt lat="43.16571" lon="6.62323">
        <ele>22</ele>
        <time>2018-09-22T08:33:30Z</time>
      </trkpt>
      <trkpt lat="43.16577" lon="6.62332">
        <ele>22</ele>
        <time>2018-09-22T08:33:38Z</time>
      </trkpt>
      <trkpt lat="43.16579" lon="6.62338">
        <ele>22</ele>
        <time>2018-09-22T08:33:42Z</time>
      </trkpt>
      <trkpt lat="43.16603" lon="6.62363">
        <ele>22</ele>
        <time>2018-09-22T08:34:06Z</time>
      </trkpt>
      <trkpt lat="43.16604" lon="6.6237">
        <ele>22</ele>
        <time>2018-09-22T08:34:11Z</time>
      </trkpt>
      <trkpt lat="43.16603" lon="6.62377">
        <ele>22</ele>
        <time>2018-09-22T08:34:14Z</time>
      </trkpt>
      <trkpt lat="43.16603" lon="6.62384">
        <ele>22</ele>
        <time>2018-09-22T08:34:18Z</time>
      </trkpt>
      <trkpt lat="43.16608" lon="6.62385">
        <ele>22</ele>
        <time>2018-09-22T08:34:23Z</time>
      </trkpt>
      <trkpt lat="43.16608" lon="6.62394">
        <ele>22</ele>
        <time>2018-09-22T08:34:30Z</time>
      </trkpt>
      <trkpt lat="43.16604" lon="6.62405">
        <ele>22</ele>
        <time>2018-09-22T08:34:39Z</time>
      </trkpt>
      <trkpt lat="43.16611" lon="6.62411">
        <ele>22</ele>
        <time>2018-09-22T08:34:51Z</time>
      </trkpt>
      <trkpt lat="43.16612" lon="6.62422">
        <ele>22</ele>
        <time>2018-09-22T08:35:01Z</time>
      </trkpt>
      <trkpt lat="43.16614" lon="6.62432">
        <ele>21</ele>
        <time>2018-09-22T08:35:10Z</time>
      </trkpt>
      <trkpt lat="43.16618" lon="6.62436">
        <ele>21</ele>
        <time>2018-09-22T08:35:17Z</time>
      </trkpt>
      <trkpt lat="43.16624" lon="6.6244">
        <ele>21</ele>
        <time>2018-09-22T08:35:27Z</time>
      </trkpt>
      <trkpt lat="43.1663" lon="6.62447">
        <ele>21</ele>
        <time>2018-09-22T08:35:37Z</time>
      </trkpt>
      <trkpt lat="43.16632" lon="6.62454">
        <ele>21</ele>
        <time>2018-09-22T08:35:47Z</time>
      </trkpt>
      <trkpt lat="43.16639" lon="6.62465">
        <ele>21</ele>
        <time>2018-09-22T08:36:08Z</time>
      </trkpt>
      <trkpt lat="43.16641" lon="6.62471">
        <ele>21</ele>
        <time>2018-09-22T08:36:12Z</time>
      </trkpt>
      <trkpt lat="43.16645" lon="6.62499">
        <ele>21</ele>
        <time>2018-09-22T08:36:29Z</time>
      </trkpt>
      <trkpt lat="43.16644" lon="6.62506">
        <ele>21</ele>
        <time>2018-09-22T08:36:34Z</time>
      </trkpt>
      <trkpt lat="43.16639" lon="6.62515">
        <ele>20</ele>
        <time>2018-09-22T08:36:45Z</time>
      </trkpt>
      <trkpt lat="43.16633" lon="6.62536">
        <ele>20</ele>
        <time>2018-09-22T08:36:57Z</time>
      </trkpt>
      <trkpt lat="43.16635" lon="6.62542">
        <ele>20</ele>
        <time>2018-09-22T08:37:01Z</time>
      </trkpt>
      <trkpt lat="43.16637" lon="6.62549">
        <ele>20</ele>
        <time>2018-09-22T08:37:06Z</time>
      </trkpt>
      <trkpt lat="43.16638" lon="6.62556">
        <ele>20</ele>
        <time>2018-09-22T08:37:11Z</time>
      </trkpt>
      <trkpt lat="43.16641" lon="6.62562">
        <ele>20</ele>
        <time>2018-09-22T08:37:16Z</time>
      </trkpt>
      <trkpt lat="43.16652" lon="6.62566">
        <ele>20</ele>
        <time>2018-09-22T08:37:29Z</time>
      </trkpt>
      <trkpt lat="43.16654" lon="6.62572">
        <ele>20</ele>
        <time>2018-09-22T08:37:34Z</time>
      </trkpt>
      <trkpt lat="43.16663" lon="6.6258">
        <ele>20</ele>
        <time>2018-09-22T08:37:44Z</time>
      </trkpt>
      <trkpt lat="43.16669" lon="6.62591">
        <ele>20</ele>
        <time>2018-09-22T08:37:54Z</time>
      </trkpt>
      <trkpt lat="43.16674" lon="6.62593">
        <ele>20</ele>
        <time>2018-09-22T08:37:59Z</time>
      </trkpt>
      <trkpt lat="43.16677" lon="6.62601">
        <ele>21</ele>
        <time>2018-09-22T08:38:06Z</time>
      </trkpt>
      <trkpt lat="43.16676" lon="6.62608">
        <ele>21</ele>
        <time>2018-09-22T08:38:11Z</time>
      </trkpt>
      <trkpt lat="43.16678" lon="6.62614">
        <ele>21</ele>
        <time>2018-09-22T08:38:16Z</time>
      </trkpt>
      <trkpt lat="43.16694" lon="6.62616">
        <ele>21</ele>
        <time>2018-09-22T08:38:30Z</time>
      </trkpt>
      <trkpt lat="43.16698" lon="6.62619">
        <ele>21</ele>
        <time>2018-09-22T08:38:35Z</time>
      </trkpt>
      <trkpt lat="43.16705" lon="6.62617">
        <ele>21</ele>
        <time>2018-09-22T08:38:44Z</time>
      </trkpt>
      <trkpt lat="43.16711" lon="6.62622">
        <ele>21</ele>
        <time>2018-09-22T08:38:51Z</time>
      </trkpt>
      <trkpt lat="43.16732" lon="6.62627">
        <ele>21</ele>
        <time>2018-09-22T08:39:12Z</time>
      </trkpt>
      <trkpt lat="43.16747" lon="6.62625">
        <ele>21</ele>
        <time>2018-09-22T08:39:26Z</time>
      </trkpt>
      <trkpt lat="43.16759" lon="6.62624">
        <ele>22</ele>
        <time>2018-09-22T08:39:58Z</time>
      </trkpt>
      <trkpt lat="43.16766" lon="6.62623">
        <ele>22</ele>
        <time>2018-09-22T08:40:06Z</time>
      </trkpt>
      <trkpt lat="43.1677" lon="6.62625">
        <ele>22</ele>
        <time>2018-09-22T08:40:10Z</time>
      </trkpt>
      <trkpt lat="43.16774" lon="6.62629">
        <ele>22</ele>
        <time>2018-09-22T08:40:17Z</time>
      </trkpt>
      <trkpt lat="43.16778" lon="6.62641">
        <ele>22</ele>
        <time>2018-09-22T08:40:27Z</time>
      </trkpt>
      <trkpt lat="43.16781" lon="6.62646">
        <ele>22</ele>
        <time>2018-09-22T08:40:31Z</time>
      </trkpt>
      <trkpt lat="43.16785" lon="6.62657">
        <ele>22</ele>
        <time>2018-09-22T08:40:43Z</time>
      </trkpt>
      <trkpt lat="43.16791" lon="6.62662">
        <ele>22</ele>
        <time>2018-09-22T08:40:50Z</time>
      </trkpt>
      <trkpt lat="43.16795" lon="6.62667">
        <ele>22</ele>
        <time>2018-09-22T08:40:55Z</time>
      </trkpt>
      <trkpt lat="43.16803" lon="6.62675">
        <ele>22</ele>
        <time>2018-09-22T08:41:05Z</time>
      </trkpt>
      <trkpt lat="43.1681" lon="6.62686">
        <ele>22</ele>
        <time>2018-09-22T08:41:15Z</time>
      </trkpt>
      <trkpt lat="43.16814" lon="6.62689">
        <ele>22</ele>
        <time>2018-09-22T08:41:20Z</time>
      </trkpt>
      <trkpt lat="43.16813" lon="6.62696">
        <ele>22</ele>
        <time>2018-09-22T08:41:32Z</time>
      </trkpt>
      <trkpt lat="43.16819" lon="6.62705">
        <ele>22</ele>
        <time>2018-09-22T08:41:56Z</time>
      </trkpt>
      <trkpt lat="43.16823" lon="6.62707">
        <ele>22</ele>
        <time>2018-09-22T08:42:01Z</time>
      </trkpt>
      <trkpt lat="43.16828" lon="6.62709">
        <ele>22</ele>
        <time>2018-09-22T08:42:14Z</time>
      </trkpt>
      <trkpt lat="43.16836" lon="6.62709">
        <ele>22</ele>
        <time>2018-09-22T08:42:22Z</time>
      </trkpt>
      <trkpt lat="43.1684" lon="6.62711">
        <ele>22</ele>
        <time>2018-09-22T08:42:27Z</time>
      </trkpt>
      <trkpt lat="43.16844" lon="6.62716">
        <ele>22</ele>
        <time>2018-09-22T08:42:33Z</time>
      </trkpt>
      <trkpt lat="43.16848" lon="6.62721">
        <ele>21</ele>
        <time>2018-09-22T08:42:51Z</time>
      </trkpt>
      <trkpt lat="43.16853" lon="6.62729">
        <ele>21</ele>
        <time>2018-09-22T08:43:18Z</time>
      </trkpt>
      <trkpt lat="43.16864" lon="6.62726">
        <ele>21</ele>
        <time>2018-09-22T08:43:28Z</time>
      </trkpt>
      <trkpt lat="43.16873" lon="6.62732">
        <ele>21</ele>
        <time>2018-09-22T08:43:37Z</time>
      </trkpt>
      <trkpt lat="43.16876" lon="6.62737">
        <ele>21</ele>
        <time>2018-09-22T08:43:42Z</time>
      </trkpt>
      <trkpt lat="43.16878" lon="6.62742">
        <ele>21</ele>
        <time>2018-09-22T08:43:46Z</time>
      </trkpt>
      <trkpt lat="43.16893" lon="6.62747">
        <ele>21</ele>
        <time>2018-09-22T08:43:59Z</time>
      </trkpt>
      <trkpt lat="43.169" lon="6.62757">
        <ele>21</ele>
        <time>2018-09-22T08:44:08Z</time>
      </trkpt>
      <trkpt lat="43.16905" lon="6.62761">
        <ele>21</ele>
        <time>2018-09-22T08:44:12Z</time>
      </trkpt>
      <trkpt lat="43.1691" lon="6.62768">
        <ele>21</ele>
        <time>2018-09-22T08:44:21Z</time>
      </trkpt>
      <trkpt lat="43.16916" lon="6.62773">
        <ele>20</ele>
        <time>2018-09-22T08:44:32Z</time>
      </trkpt>
      <trkpt lat="43.16922" lon="6.62789">
        <ele>20</ele>
        <time>2018-09-22T08:44:43Z</time>
      </trkpt>
      <trkpt lat="43.16923" lon="6.62796">
        <ele>20</ele>
        <time>2018-09-22T08:45:08Z</time>
      </trkpt>
      <trkpt lat="43.16927" lon="6.62805">
        <ele>20</ele>
        <time>2018-09-22T08:45:19Z</time>
      </trkpt>
      <trkpt lat="43.16934" lon="6.62803">
        <ele>20</ele>
        <time>2018-09-22T08:45:30Z</time>
      </trkpt>
      <trkpt lat="43.16939" lon="6.62803">
        <ele>20</ele>
        <time>2018-09-22T08:45:35Z</time>
      </trkpt>
      <trkpt lat="43.16944" lon="6.62798">
        <ele>20</ele>
        <time>2018-09-22T08:45:57Z</time>
      </trkpt>
      <trkpt lat="43.16948" lon="6.62794">
        <ele>20</ele>
        <time>2018-09-22T08:46:07Z</time>
      </trkpt>
      <trkpt lat="43.16952" lon="6.62788">
        <ele>20</ele>
        <time>2018-09-22T08:46:22Z</time>
      </trkpt>
      <trkpt lat="43.16957" lon="6.6279">
        <ele>20</ele>
        <time>2018-09-22T08:46:37Z</time>
      </trkpt>
      <trkpt lat="43.16961" lon="6.62795">
        <ele>20</ele>
        <time>2018-09-22T08:46:47Z</time>
      </trkpt>
      <trkpt lat="43.16969" lon="6.62821">
        <ele>21</ele>
        <time>2018-09-22T08:47:27Z</time>
      </trkpt>
      <trkpt lat="43.1697" lon="6.62827">
        <ele>21</ele>
        <time>2018-09-22T08:47:32Z</time>
      </trkpt>
      <trkpt lat="43.16974" lon="6.6283">
        <ele>21</ele>
        <time>2018-09-22T08:47:39Z</time>
      </trkpt>
      <trkpt lat="43.16977" lon="6.6284">
        <ele>21</ele>
        <time>2018-09-22T08:47:54Z</time>
      </trkpt>
      <trkpt lat="43.16979" lon="6.6286">
        <ele>21</ele>
        <time>2018-09-22T08:48:07Z</time>
      </trkpt>
      <trkpt lat="43.16983" lon="6.62879">
        <ele>21</ele>
        <time>2018-09-22T08:48:27Z</time>
      </trkpt>
      <trkpt lat="43.16986" lon="6.62889">
        <ele>22</ele>
        <time>2018-09-22T08:48:37Z</time>
      </trkpt>
      <trkpt lat="43.16992" lon="6.62899">
        <ele>22</ele>
        <time>2018-09-22T08:48:48Z</time>
      </trkpt>
      <trkpt lat="43.17016" lon="6.62919">
        <ele>22</ele>
        <time>2018-09-22T08:49:19Z</time>
      </trkpt>
      <trkpt lat="43.17014" lon="6.62928">
        <ele>22</ele>
        <time>2018-09-22T08:49:29Z</time>
      </trkpt>
      <trkpt lat="43.17016" lon="6.62939">
        <ele>22</ele>
        <time>2018-09-22T08:49:40Z</time>
      </trkpt>
      <trkpt lat="43.17018" lon="6.62944">
        <ele>22</ele>
        <time>2018-09-22T08:49:45Z</time>
      </trkpt>
      <trkpt lat="43.17019" lon="6.62952">
        <ele>22</ele>
        <time>2018-09-22T08:49:57Z</time>
      </trkpt>
      <trkpt lat="43.17023" lon="6.62956">
        <ele>22</ele>
        <time>2018-09-22T08:50:07Z</time>
      </trkpt>
      <trkpt lat="43.17028" lon="6.62963">
        <ele>23</ele>
        <time>2018-09-22T08:50:18Z</time>
      </trkpt>
      <trkpt lat="43.17034" lon="6.62966">
        <ele>23</ele>
        <time>2018-09-22T08:50:30Z</time>
      </trkpt>
      <trkpt lat="43.17037" lon="6.62971">
        <ele>22</ele>
        <time>2018-09-22T08:50:42Z</time>
      </trkpt>
      <trkpt lat="43.17031" lon="6.62978">
        <ele>22</ele>
        <time>2018-09-22T08:51:06Z</time>
      </trkpt>
      <trkpt lat="43.17027" lon="6.62985">
        <ele>22</ele>
        <time>2018-09-22T08:51:17Z</time>
      </trkpt>
      <trkpt lat="43.17031" lon="6.62988">
        <ele>22</ele>
        <time>2018-09-22T08:51:22Z</time>
      </trkpt>
      <trkpt lat="43.17036" lon="6.62989">
        <ele>22</ele>
        <time>2018-09-22T08:51:26Z</time>
      </trkpt>
      <trkpt lat="43.17048" lon="6.62983">
        <ele>22</ele>
        <time>2018-09-22T08:51:37Z</time>
      </trkpt>
      <trkpt lat="43.17053" lon="6.62984">
        <ele>22</ele>
        <time>2018-09-22T08:51:41Z</time>
      </trkpt>
      <trkpt lat="43.17065" lon="6.6299">
        <ele>22</ele>
        <time>2018-09-22T08:51:54Z</time>
      </trkpt>
      <trkpt lat="43.17069" lon="6.62997">
        <ele>22</ele>
        <time>2018-09-22T08:52:01Z</time>
      </trkpt>
      <trkpt lat="43.1707" lon="6.63003">
        <ele>22</ele>
        <time>2018-09-22T08:52:07Z</time>
      </trkpt>
      <trkpt lat="43.17072" lon="6.63014">
        <ele>21</ele>
        <time>2018-09-22T08:52:21Z</time>
      </trkpt>
      <trkpt lat="43.17075" lon="6.63018">
        <ele>21</ele>
        <time>2018-09-22T08:52:25Z</time>
      </trkpt>
      <trkpt lat="43.17086" lon="6.63023">
        <ele>21</ele>
        <time>2018-09-22T08:52:35Z</time>
      </trkpt>
      <trkpt lat="43.1709" lon="6.63028">
        <ele>21</ele>
        <time>2018-09-22T08:52:39Z</time>
      </trkpt>
      <trkpt lat="43.17095" lon="6.63029">
        <ele>21</ele>
        <time>2018-09-22T08:52:44Z</time>
      </trkpt>
      <trkpt lat="43.17101" lon="6.63033">
        <ele>21</ele>
        <time>2018-09-22T08:52:52Z</time>
      </trkpt>
      <trkpt lat="43.17112" lon="6.63047">
        <ele>21</ele>
        <time>2018-09-22T08:53:07Z</time>
      </trkpt>
      <trkpt lat="43.17128" lon="6.63082">
        <ele>21</ele>
        <time>2018-09-22T08:53:36Z</time>
      </trkpt>
      <trkpt lat="43.17127" lon="6.63091">
        <ele>21</ele>
        <time>2018-09-22T08:53:46Z</time>
      </trkpt>
      <trkpt lat="43.17125" lon="6.63102">
        <ele>20</ele>
        <time>2018-09-22T08:53:58Z</time>
      </trkpt>
      <trkpt lat="43.17126" lon="6.63128">
        <ele>20</ele>
        <time>2018-09-22T08:54:28Z</time>
      </trkpt>
      <trkpt lat="43.17125" lon="6.63142">
        <ele>20</ele>
        <time>2018-09-22T08:54:36Z</time>
      </trkpt>
      <trkpt lat="43.17122" lon="6.63149">
        <ele>20</ele>
        <time>2018-09-22T08:54:41Z</time>
      </trkpt>
      <trkpt lat="43.17111" lon="6.63166">
        <ele>20</ele>
        <time>2018-09-22T08:54:55Z</time>
      </trkpt>
      <trkpt lat="43.17107" lon="6.6317">
        <ele>20</ele>
        <time>2018-09-22T08:54:59Z</time>
      </trkpt>
      <trkpt lat="43.17104" lon="6.63177">
        <ele>20</ele>
        <time>2018-09-22T08:55:03Z</time>
      </trkpt>
      <trkpt lat="43.17106" lon="6.63183">
        <ele>20</ele>
        <time>2018-09-22T08:55:07Z</time>
      </trkpt>
      <trkpt lat="43.17114" lon="6.632">
        <ele>20</ele>
        <time>2018-09-22T08:55:19Z</time>
      </trkpt>
      <trkpt lat="43.17118" lon="6.63205">
        <ele>20</ele>
        <time>2018-09-22T08:55:23Z</time>
      </trkpt>
      <trkpt lat="43.17122" lon="6.63207">
        <ele>20</ele>
        <time>2018-09-22T08:55:27Z</time>
      </trkpt>
      <trkpt lat="43.17132" lon="6.63199">
        <ele>19</ele>
        <time>2018-09-22T08:55:49Z</time>
      </trkpt>
      <trkpt lat="43.17137" lon="6.63199">
        <ele>19</ele>
        <time>2018-09-22T08:55:54Z</time>
      </trkpt>
      <trkpt lat="43.17143" lon="6.63195">
        <ele>19</ele>
        <time>2018-09-22T08:55:59Z</time>
      </trkpt>
      <trkpt lat="43.17152" lon="6.63198">
        <ele>19</ele>
        <time>2018-09-22T08:56:08Z</time>
      </trkpt>
      <trkpt lat="43.17167" lon="6.63198">
        <ele>19</ele>
        <time>2018-09-22T08:56:26Z</time>
      </trkpt>
      <trkpt lat="43.17172" lon="6.63202">
        <ele>19</ele>
        <time>2018-09-22T08:56:31Z</time>
      </trkpt>
      <trkpt lat="43.17177" lon="6.63203">
        <ele>19</ele>
        <time>2018-09-22T08:56:36Z</time>
      </trkpt>
      <trkpt lat="43.17193" lon="6.63212">
        <ele>19</ele>
        <time>2018-09-22T08:57:03Z</time>
      </trkpt>
      <trkpt lat="43.17201" lon="6.63224">
        <ele>19</ele>
        <time>2018-09-22T08:57:16Z</time>
      </trkpt>
      <trkpt lat="43.17207" lon="6.63227">
        <ele>18</ele>
        <time>2018-09-22T08:57:23Z</time>
      </trkpt>
      <trkpt lat="43.17212" lon="6.63226">
        <ele>18</ele>
        <time>2018-09-22T08:57:28Z</time>
      </trkpt>
      <trkpt lat="43.17217" lon="6.63228">
        <ele>18</ele>
        <time>2018-09-22T08:57:36Z</time>
      </trkpt>
      <trkpt lat="43.1722" lon="6.63232">
        <ele>18</ele>
        <time>2018-09-22T08:57:41Z</time>
      </trkpt>
      <trkpt lat="43.17222" lon="6.63238">
        <ele>18</ele>
        <time>2018-09-22T08:57:49Z</time>
      </trkpt>
      <trkpt lat="43.17223" lon="6.63245">
        <ele>18</ele>
        <time>2018-09-22T08:58:01Z</time>
      </trkpt>
      <trkpt lat="43.17223" lon="6.63252">
        <ele>18</ele>
        <time>2018-09-22T08:58:06Z</time>
      </trkpt>
      <trkpt lat="43.17237" lon="6.63281">
        <ele>18</ele>
        <time>2018-09-22T08:58:31Z</time>
      </trkpt>
      <trkpt lat="43.17241" lon="6.63293">
        <ele>18</ele>
        <time>2018-09-22T08:58:40Z</time>
      </trkpt>
      <trkpt lat="43.17245" lon="6.63298">
        <ele>18</ele>
        <time>2018-09-22T08:58:45Z</time>
      </trkpt>
      <trkpt lat="43.17247" lon="6.63304">
        <ele>18</ele>
        <time>2018-09-22T08:58:50Z</time>
      </trkpt>
      <trkpt lat="43.17251" lon="6.63334">
        <ele>17</ele>
        <time>2018-09-22T08:59:12Z</time>
      </trkpt>
      <trkpt lat="43.17255" lon="6.63346">
        <ele>17</ele>
        <time>2018-09-22T08:59:20Z</time>
      </trkpt>
      <trkpt lat="43.17255" lon="6.63356">
        <ele>17</ele>
        <time>2018-09-22T08:59:27Z</time>
      </trkpt>
      <trkpt lat="43.17263" lon="6.63411">
        <ele>17</ele>
        <time>2018-09-22T08:59:59Z</time>
      </trkpt>
      <trkpt lat="43.17268" lon="6.63445">
        <ele>17</ele>
        <time>2018-09-22T09:00:19Z</time>
      </trkpt>
      <trkpt lat="43.17269" lon="6.63451">
        <ele>17</ele>
        <time>2018-09-22T09:00:23Z</time>
      </trkpt>
      <trkpt lat="43.17272" lon="6.63498">
        <ele>16</ele>
        <time>2018-09-22T09:00:53Z</time>
      </trkpt>
      <trkpt lat="43.17274" lon="6.6351">
        <ele>16</ele>
        <time>2018-09-22T09:01:01Z</time>
      </trkpt>
      <trkpt lat="43.17274" lon="6.6356">
        <ele>16</ele>
        <time>2018-09-22T09:01:35Z</time>
      </trkpt>
      <trkpt lat="43.17275" lon="6.63568">
        <ele>16</ele>
        <time>2018-09-22T09:01:42Z</time>
      </trkpt>
      <trkpt lat="43.17273" lon="6.63575">
        <ele>16</ele>
        <time>2018-09-22T09:01:47Z</time>
      </trkpt>
      <trkpt lat="43.17269" lon="6.63609">
        <ele>16</ele>
        <time>2018-09-22T09:02:12Z</time>
      </trkpt>
      <trkpt lat="43.17272" lon="6.63615">
        <ele>16</ele>
        <time>2018-09-22T09:02:17Z</time>
      </trkpt>
      <trkpt lat="43.17273" lon="6.63628">
        <ele>15</ele>
        <time>2018-09-22T09:02:27Z</time>
      </trkpt>
      <trkpt lat="43.17271" lon="6.63635">
        <ele>15</ele>
        <time>2018-09-22T09:02:32Z</time>
      </trkpt>
      <trkpt lat="43.17271" lon="6.63648">
        <ele>15</ele>
        <time>2018-09-22T09:02:52Z</time>
      </trkpt>
      <trkpt lat="43.1727" lon="6.63655">
        <ele>15</ele>
        <time>2018-09-22T09:02:57Z</time>
      </trkpt>
      <trkpt lat="43.17268" lon="6.63663">
        <ele>15</ele>
        <time>2018-09-22T09:03:04Z</time>
      </trkpt>
      <trkpt lat="43.17266" lon="6.63668">
        <ele>15</ele>
        <time>2018-09-22T09:03:09Z</time>
      </trkpt>
      <trkpt lat="43.17264" lon="6.63675">
        <ele>15</ele>
        <time>2018-09-22T09:03:14Z</time>
      </trkpt>
      <trkpt lat="43.17264" lon="6.63681">
        <ele>15</ele>
        <time>2018-09-22T09:03:19Z</time>
      </trkpt>
      <trkpt lat="43.17266" lon="6.63689">
        <ele>15</ele>
        <time>2018-09-22T09:03:26Z</time>
      </trkpt>
      <trkpt lat="43.17268" lon="6.63704">
        <ele>15</ele>
        <time>2018-09-22T09:03:43Z</time>
      </trkpt>
      <trkpt lat="43.17262" lon="6.63713">
        <ele>15</ele>
        <time>2018-09-22T09:03:53Z</time>
      </trkpt>
      <trkpt lat="43.17255" lon="6.63728">
        <ele>14</ele>
        <time>2018-09-22T09:04:10Z</time>
      </trkpt>
      <trkpt lat="43.17253" lon="6.63738">
        <ele>14</ele>
        <time>2018-09-22T09:04:20Z</time>
      </trkpt>
      <trkpt lat="43.17248" lon="6.63748">
        <ele>14</ele>
        <time>2018-09-22T09:04:30Z</time>
      </trkpt>
      <trkpt lat="43.1725" lon="6.63765">
        <ele>14</ele>
        <time>2018-09-22T09:04:45Z</time>
      </trkpt>
      <trkpt lat="43.17247" lon="6.63775">
        <ele>14</ele>
        <time>2018-09-22T09:04:57Z</time>
      </trkpt>
      <trkpt lat="43.17246" lon="6.63784">
        <ele>14</ele>
        <time>2018-09-22T09:05:09Z</time>
      </trkpt>
      <trkpt lat="43.17245" lon="6.63795">
        <ele>14</ele>
        <time>2018-09-22T09:05:21Z</time>
      </trkpt>
      <trkpt lat="43.17251" lon="6.63802">
        <ele>14</ele>
        <time>2018-09-22T09:05:33Z</time>
      </trkpt>
      <trkpt lat="43.17252" lon="6.63817">
        <ele>13</ele>
        <time>2018-09-22T09:05:53Z</time>
      </trkpt>
      <trkpt lat="43.1725" lon="6.63824">
        <ele>13</ele>
        <time>2018-09-22T09:06:03Z</time>
      </trkpt>
      <trkpt lat="43.17247" lon="6.63834">
        <ele>13</ele>
        <time>2018-09-22T09:06:13Z</time>
      </trkpt>
      <trkpt lat="43.17255" lon="6.63835">
        <ele>13</ele>
        <time>2018-09-22T09:06:33Z</time>
      </trkpt>
      <trkpt lat="43.17256" lon="6.63844">
        <ele>13</ele>
        <time>2018-09-22T09:06:43Z</time>
      </trkpt>
      <trkpt lat="43.17263" lon="6.63856">
        <ele>13</ele>
        <time>2018-09-22T09:06:53Z</time>
      </trkpt>
      <trkpt lat="43.17267" lon="6.63876">
        <ele>13</ele>
        <time>2018-09-22T09:07:08Z</time>
      </trkpt>
      <trkpt lat="43.17273" lon="6.63887">
        <ele>12</ele>
        <time>2018-09-22T09:07:18Z</time>
      </trkpt>
      <trkpt lat="43.17274" lon="6.63893">
        <ele>12</ele>
        <time>2018-09-22T09:07:25Z</time>
      </trkpt>
      <trkpt lat="43.1727" lon="6.639">
        <ele>12</ele>
        <time>2018-09-22T09:07:31Z</time>
      </trkpt>
      <trkpt lat="43.17274" lon="6.63914">
        <ele>12</ele>
        <time>2018-09-22T09:07:44Z</time>
      </trkpt>
      <trkpt lat="43.17267" lon="6.63904">
        <ele>12</ele>
        <time>2018-09-22T09:08:07Z</time>
      </trkpt>
      <trkpt lat="43.17257" lon="6.63913">
        <ele>12</ele>
        <time>2018-09-22T09:08:22Z</time>
      </trkpt>
      <trkpt lat="43.17254" lon="6.6394">
        <ele>12</ele>
        <time>2018-09-22T09:08:41Z</time>
      </trkpt>
      <trkpt lat="43.17248" lon="6.63963">
        <ele>11</ele>
        <time>2018-09-22T09:08:59Z</time>
      </trkpt>
      <trkpt lat="43.17235" lon="6.63994">
        <ele>11</ele>
        <time>2018-09-22T09:09:26Z</time>
      </trkpt>
      <trkpt lat="43.17219" lon="6.64015">
        <ele>11</ele>
        <time>2018-09-22T09:09:52Z</time>
      </trkpt>
      <trkpt lat="43.17217" lon="6.64021">
        <ele>11</ele>
        <time>2018-09-22T09:09:57Z</time>
      </trkpt>
      <trkpt lat="43.17212" lon="6.64027">
        <ele>11</ele>
        <time>2018-09-22T09:10:05Z</time>
      </trkpt>
      <trkpt lat="43.17196" lon="6.64064">
        <ele>11</ele>
        <time>2018-09-22T09:10:35Z</time>
      </trkpt>
      <trkpt lat="43.17197" lon="6.6408">
        <ele>10</ele>
        <time>2018-09-22T09:10:52Z</time>
      </trkpt>
      <trkpt lat="43.17193" lon="6.64088">
        <ele>10</ele>
        <time>2018-09-22T09:11:01Z</time>
      </trkpt>
      <trkpt lat="43.17189" lon="6.6409">
        <ele>10</ele>
        <time>2018-09-22T09:11:05Z</time>
      </trkpt>
      <trkpt lat="43.17186" lon="6.64095">
        <ele>10</ele>
        <time>2018-09-22T09:11:09Z</time>
      </trkpt>
      <trkpt lat="43.1718" lon="6.64113">
        <ele>10</ele>
        <time>2018-09-22T09:11:22Z</time>
      </trkpt>
      <trkpt lat="43.17175" lon="6.6412">
        <ele>10</ele>
        <time>2018-09-22T09:11:29Z</time>
      </trkpt>
      <trkpt lat="43.17172" lon="6.64125">
        <ele>10</ele>
        <time>2018-09-22T09:11:34Z</time>
      </trkpt>
      <trkpt lat="43.17166" lon="6.64151">
        <ele>10</ele>
        <time>2018-09-22T09:11:54Z</time>
      </trkpt>
      <trkpt lat="43.17153" lon="6.64172">
        <ele>10</ele>
        <time>2018-09-22T09:12:13Z</time>
      </trkpt>
      <trkpt lat="43.17125" lon="6.64204">
        <ele>10</ele>
        <time>2018-09-22T09:12:45Z</time>
      </trkpt>
      <trkpt lat="43.17098" lon="6.64235">
        <ele>10</ele>
        <time>2018-09-22T09:13:17Z</time>
      </trkpt>
      <trkpt lat="43.17074" lon="6.64262">
        <ele>10</ele>
        <time>2018-09-22T09:13:47Z</time>
      </trkpt>
      <trkpt lat="43.17066" lon="6.64287">
        <ele>11</ele>
        <time>2018-09-22T09:14:10Z</time>
      </trkpt>
      <trkpt lat="43.17062" lon="6.64291">
        <ele>11</ele>
        <time>2018-09-22T09:14:15Z</time>
      </trkpt>
      <trkpt lat="43.17052" lon="6.64309">
        <ele>11</ele>
        <time>2018-09-22T09:14:32Z</time>
      </trkpt>
      <trkpt lat="43.17048" lon="6.64313">
        <ele>11</ele>
        <time>2018-09-22T09:14:37Z</time>
      </trkpt>
      <trkpt lat="43.17045" lon="6.64319">
        <ele>11</ele>
        <time>2018-09-22T09:14:42Z</time>
      </trkpt>
      <trkpt lat="43.1701" lon="6.64347">
        <ele>11</ele>
        <time>2018-09-22T09:15:15Z</time>
      </trkpt>
      <trkpt lat="43.16998" lon="6.6436">
        <ele>11</ele>
        <time>2018-09-22T09:15:28Z</time>
      </trkpt>
      <trkpt lat="43.1697" lon="6.64396">
        <ele>12</ele>
        <time>2018-09-22T09:16:01Z</time>
      </trkpt>
      <trkpt lat="43.16968" lon="6.64402">
        <ele>12</ele>
        <time>2018-09-22T09:16:05Z</time>
      </trkpt>
      <trkpt lat="43.16963" lon="6.64429">
        <ele>12</ele>
        <time>2018-09-22T09:16:22Z</time>
      </trkpt>
      <trkpt lat="43.16959" lon="6.64433">
        <ele>12</ele>
        <time>2018-09-22T09:16:27Z</time>
      </trkpt>
      <trkpt lat="43.16954" lon="6.64436">
        <ele>12</ele>
        <time>2018-09-22T09:16:31Z</time>
      </trkpt>
      <trkpt lat="43.16946" lon="6.64442">
        <ele>12</ele>
        <time>2018-09-22T09:16:39Z</time>
      </trkpt>
      <trkpt lat="43.16942" lon="6.64445">
        <ele>12</ele>
        <time>2018-09-22T09:16:43Z</time>
      </trkpt>
      <trkpt lat="43.16941" lon="6.64455">
        <ele>12</ele>
        <time>2018-09-22T09:16:52Z</time>
      </trkpt>
      <trkpt lat="43.16928" lon="6.64467">
        <ele>12</ele>
        <time>2018-09-22T09:17:09Z</time>
      </trkpt>
      <trkpt lat="43.16923" lon="6.64468">
        <ele>13</ele>
        <time>2018-09-22T09:17:14Z</time>
      </trkpt>
      <trkpt lat="43.16914" lon="6.64474">
        <ele>13</ele>
        <time>2018-09-22T09:17:24Z</time>
      </trkpt>
      <trkpt lat="43.16917" lon="6.64488">
        <ele>13</ele>
        <time>2018-09-22T09:17:36Z</time>
      </trkpt>
      <trkpt lat="43.16922" lon="6.64495">
        <ele>13</ele>
        <time>2018-09-22T09:17:46Z</time>
      </trkpt>
      <trkpt lat="43.1693" lon="6.64499">
        <ele>13</ele>
        <time>2018-09-22T09:17:56Z</time>
      </trkpt>
      <trkpt lat="43.16937" lon="6.64508">
        <ele>13</ele>
        <time>2018-09-22T09:18:07Z</time>
      </trkpt>
      <trkpt lat="43.16938" lon="6.64515">
        <ele>13</ele>
        <time>2018-09-22T09:18:15Z</time>
      </trkpt>
      <trkpt lat="43.16935" lon="6.64519">
        <ele>13</ele>
        <time>2018-09-22T09:18:20Z</time>
      </trkpt>
      <trkpt lat="43.16934" lon="6.64529">
        <ele>13</ele>
        <time>2018-09-22T09:18:28Z</time>
      </trkpt>
      <trkpt lat="43.16921" lon="6.64543">
        <ele>13</ele>
        <time>2018-09-22T09:18:47Z</time>
      </trkpt>
      <trkpt lat="43.16918" lon="6.64546">
        <ele>14</ele>
        <time>2018-09-22T09:18:57Z</time>
      </trkpt>
      <trkpt lat="43.1691" lon="6.64547">
        <ele>14</ele>
        <time>2018-09-22T09:19:17Z</time>
      </trkpt>
      <trkpt lat="43.16903" lon="6.64558">
        <ele>14</ele>
        <time>2018-09-22T09:19:30Z</time>
      </trkpt>
      <trkpt lat="43.16904" lon="6.64564">
        <ele>14</ele>
        <time>2018-09-22T09:19:35Z</time>
      </trkpt>
      <trkpt lat="43.16901" lon="6.64573">
        <ele>14</ele>
        <time>2018-09-22T09:19:49Z</time>
      </trkpt>
      <trkpt lat="43.16898" lon="6.64578">
        <ele>14</ele>
        <time>2018-09-22T09:19:55Z</time>
      </trkpt>
      <trkpt lat="43.16894" lon="6.64581">
        <ele>14</ele>
        <time>2018-09-22T09:20:00Z</time>
      </trkpt>
      <trkpt lat="43.1689" lon="6.64583">
        <ele>14</ele>
        <time>2018-09-22T09:20:09Z</time>
      </trkpt>
      <trkpt lat="43.16891" lon="6.64578">
        <ele>15</ele>
        <time>2018-09-22T09:21:29Z</time>
      </trkpt>
      <trkpt lat="43.16898" lon="6.64575">
        <ele>16</ele>
        <time>2018-09-22T09:23:29Z</time>
      </trkpt>
      <trkpt lat="43.16902" lon="6.64568">
        <ele>16</ele>
        <time>2018-09-22T09:23:38Z</time>
      </trkpt>
      <trkpt lat="43.169" lon="6.64557">
        <ele>16</ele>
        <time>2018-09-22T09:23:48Z</time>
      </trkpt>
      <trkpt lat="43.16913" lon="6.64545">
        <ele>17</ele>
        <time>2018-09-22T09:24:00Z</time>
      </trkpt>
      <trkpt lat="43.16923" lon="6.64543">
        <ele>17</ele>
        <time>2018-09-22T09:24:10Z</time>
      </trkpt>
      <trkpt lat="43.16937" lon="6.64527">
        <ele>17</ele>
        <time>2018-09-22T09:24:26Z</time>
      </trkpt>
      <trkpt lat="43.16938" lon="6.64518">
        <ele>17</ele>
        <time>2018-09-22T09:24:33Z</time>
      </trkpt>
      <trkpt lat="43.16942" lon="6.64511">
        <ele>17</ele>
        <time>2018-09-22T09:24:42Z</time>
      </trkpt>
      <trkpt lat="43.16939" lon="6.64507">
        <ele>17</ele>
        <time>2018-09-22T09:24:46Z</time>
      </trkpt>
      <trkpt lat="43.16934" lon="6.64504">
        <ele>17</ele>
        <time>2018-09-22T09:24:51Z</time>
      </trkpt>
      <trkpt lat="43.16931" lon="6.64498">
        <ele>17</ele>
        <time>2018-09-22T09:24:58Z</time>
      </trkpt>
      <trkpt lat="43.16927" lon="6.64495">
        <ele>17</ele>
        <time>2018-09-22T09:25:02Z</time>
      </trkpt>
      <trkpt lat="43.16923" lon="6.64492">
        <ele>17</ele>
        <time>2018-09-22T09:25:07Z</time>
      </trkpt>
      <trkpt lat="43.16917" lon="6.64483">
        <ele>17</ele>
        <time>2018-09-22T09:25:17Z</time>
      </trkpt>
      <trkpt lat="43.16917" lon="6.64475">
        <ele>17</ele>
        <time>2018-09-22T09:25:24Z</time>
      </trkpt>
      <trkpt lat="43.16922" lon="6.64466">
        <ele>18</ele>
        <time>2018-09-22T09:25:34Z</time>
      </trkpt>
      <trkpt lat="43.16927" lon="6.64466">
        <ele>18</ele>
        <time>2018-09-22T09:25:38Z</time>
      </trkpt>
      <trkpt lat="43.16936" lon="6.64464">
        <ele>18</ele>
        <time>2018-09-22T09:25:47Z</time>
      </trkpt>
      <trkpt lat="43.1694" lon="6.6446">
        <ele>18</ele>
        <time>2018-09-22T09:25:52Z</time>
      </trkpt>
      <trkpt lat="43.16945" lon="6.64457">
        <ele>18</ele>
        <time>2018-09-22T09:25:57Z</time>
      </trkpt>
      <trkpt lat="43.16947" lon="6.64452">
        <ele>18</ele>
        <time>2018-09-22T09:26:02Z</time>
      </trkpt>
      <trkpt lat="43.16947" lon="6.64445">
        <ele>18</ele>
        <time>2018-09-22T09:26:07Z</time>
      </trkpt>
      <trkpt lat="43.16966" lon="6.64434">
        <ele>18</ele>
        <time>2018-09-22T09:26:24Z</time>
      </trkpt>
      <trkpt lat="43.1697" lon="6.64429">
        <ele>18</ele>
        <time>2018-09-22T09:26:29Z</time>
      </trkpt>
      <trkpt lat="43.16971" lon="6.64415">
        <ele>18</ele>
        <time>2018-09-22T09:26:37Z</time>
      </trkpt>
      <trkpt lat="43.16973" lon="6.64395">
        <ele>18</ele>
        <time>2018-09-22T09:26:50Z</time>
      </trkpt>
      <trkpt lat="43.16976" lon="6.64386">
        <ele>18</ele>
        <time>2018-09-22T09:26:57Z</time>
      </trkpt>
      <trkpt lat="43.17002" lon="6.64353">
        <ele>19</ele>
        <time>2018-09-22T09:27:38Z</time>
      </trkpt>
      <trkpt lat="43.17014" lon="6.6434">
        <ele>19</ele>
        <time>2018-09-22T09:27:50Z</time>
      </trkpt>
      <trkpt lat="43.17043" lon="6.64316">
        <ele>19</ele>
        <time>2018-09-22T09:28:22Z</time>
      </trkpt>
      <trkpt lat="43.17046" lon="6.64311">
        <ele>19</ele>
        <time>2018-09-22T09:28:26Z</time>
      </trkpt>
      <trkpt lat="43.17067" lon="6.64281">
        <ele>20</ele>
        <time>2018-09-22T09:28:54Z</time>
      </trkpt>
      <trkpt lat="43.1708" lon="6.64256">
        <ele>20</ele>
        <time>2018-09-22T09:29:19Z</time>
      </trkpt>
      <trkpt lat="43.17104" lon="6.64228">
        <ele>20</ele>
        <time>2018-09-22T09:29:49Z</time>
      </trkpt>
      <trkpt lat="43.17134" lon="6.64198">
        <ele>20</ele>
        <time>2018-09-22T09:30:22Z</time>
      </trkpt>
      <trkpt lat="43.17158" lon="6.64171">
        <ele>20</ele>
        <time>2018-09-22T09:30:51Z</time>
      </trkpt>
      <trkpt lat="43.17173" lon="6.64134">
        <ele>19</ele>
        <time>2018-09-22T09:31:20Z</time>
      </trkpt>
      <trkpt lat="43.17176" lon="6.64121">
        <ele>19</ele>
        <time>2018-09-22T09:31:30Z</time>
      </trkpt>
      <trkpt lat="43.17183" lon="6.64112">
        <ele>19</ele>
        <time>2018-09-22T09:31:39Z</time>
      </trkpt>
      <trkpt lat="43.17186" lon="6.64098">
        <ele>19</ele>
        <time>2018-09-22T09:31:47Z</time>
      </trkpt>
      <trkpt lat="43.17189" lon="6.64092">
        <ele>19</ele>
        <time>2018-09-22T09:31:52Z</time>
      </trkpt>
      <trkpt lat="43.17198" lon="6.64082">
        <ele>19</ele>
        <time>2018-09-22T09:32:04Z</time>
      </trkpt>
      <trkpt lat="43.17194" lon="6.64066">
        <ele>19</ele>
        <time>2018-09-22T09:32:18Z</time>
      </trkpt>
      <trkpt lat="43.17188" lon="6.64068">
        <ele>19</ele>
        <time>2018-09-22T09:32:23Z</time>
      </trkpt>
      <trkpt lat="43.17174" lon="6.64088">
        <ele>19</ele>
        <time>2018-09-22T09:32:41Z</time>
      </trkpt>
      <trkpt lat="43.17169" lon="6.641">
        <ele>19</ele>
        <time>2018-09-22T09:32:50Z</time>
      </trkpt>
      <trkpt lat="43.17163" lon="6.64112">
        <ele>18</ele>
        <time>2018-09-22T09:33:00Z</time>
      </trkpt>
      <trkpt lat="43.17162" lon="6.64119">
        <ele>18</ele>
        <time>2018-09-22T09:33:05Z</time>
      </trkpt>
      <trkpt lat="43.1716" lon="6.64124">
        <ele>4.6</ele>
        <time>2018-09-22T11:01:18Z</time>
      </trkpt>
      <trkpt lat="43.17165" lon="6.64107">
        <ele>1</ele>
        <time>2018-09-22T11:07:06Z</time>
      </trkpt>
      <trkpt lat="43.17172" lon="6.64096">
        <ele>1</ele>
        <time>2018-09-22T11:07:23Z</time>
      </trkpt>
      <trkpt lat="43.17176" lon="6.64081">
        <ele>1</ele>
        <time>2018-09-22T11:08:03Z</time>
      </trkpt>
      <trkpt lat="43.17191" lon="6.64053">
        <ele>1</ele>
        <time>2018-09-22T11:08:35Z</time>
      </trkpt>
      <trkpt lat="43.17205" lon="6.64029">
        <ele>1</ele>
        <time>2018-09-22T11:09:00Z</time>
      </trkpt>
      <trkpt lat="43.17212" lon="6.6402">
        <ele>1</ele>
        <time>2018-09-22T11:09:15Z</time>
      </trkpt>
      <trkpt lat="43.17227" lon="6.64001">
        <ele>1</ele>
        <time>2018-09-22T11:09:50Z</time>
      </trkpt>
      <trkpt lat="43.17232" lon="6.63985">
        <ele>1</ele>
        <time>2018-09-22T11:10:05Z</time>
      </trkpt>
      <trkpt lat="43.17242" lon="6.63969">
        <ele>1</ele>
        <time>2018-09-22T11:10:21Z</time>
      </trkpt>
      <trkpt lat="43.17254" lon="6.63928">
        <ele>1</ele>
        <time>2018-09-22T11:10:58Z</time>
      </trkpt>
      <trkpt lat="43.17257" lon="6.63915">
        <ele>1</ele>
        <time>2018-09-22T11:11:08Z</time>
      </trkpt>
      <trkpt lat="43.17263" lon="6.63904">
        <ele>1</ele>
        <time>2018-09-22T11:11:23Z</time>
      </trkpt>
      <trkpt lat="43.17272" lon="6.63895">
        <ele>1</ele>
        <time>2018-09-22T11:11:43Z</time>
      </trkpt>
      <trkpt lat="43.17271" lon="6.63885">
        <ele>1</ele>
        <time>2018-09-22T11:11:53Z</time>
      </trkpt>
      <trkpt lat="43.17265" lon="6.63875">
        <ele>2</ele>
        <time>2018-09-22T11:12:03Z</time>
      </trkpt>
      <trkpt lat="43.17262" lon="6.63859">
        <ele>2</ele>
        <time>2018-09-22T11:12:15Z</time>
      </trkpt>
      <trkpt lat="43.1726" lon="6.63854">
        <ele>2</ele>
        <time>2018-09-22T11:12:20Z</time>
      </trkpt>
      <trkpt lat="43.1725" lon="6.63834">
        <ele>2</ele>
        <time>2018-09-22T11:12:40Z</time>
      </trkpt>
      <trkpt lat="43.1725" lon="6.63823">
        <ele>2</ele>
        <time>2018-09-22T11:12:50Z</time>
      </trkpt>
      <trkpt lat="43.17251" lon="6.63817">
        <ele>2</ele>
        <time>2018-09-22T11:12:57Z</time>
      </trkpt>
      <trkpt lat="43.1725" lon="6.63807">
        <ele>2</ele>
        <time>2018-09-22T11:13:17Z</time>
      </trkpt>
      <trkpt lat="43.1725" lon="6.63795">
        <ele>2</ele>
        <time>2018-09-22T11:13:27Z</time>
      </trkpt>
      <trkpt lat="43.17245" lon="6.63794">
        <ele>2</ele>
        <time>2018-09-22T11:13:32Z</time>
      </trkpt>
      <trkpt lat="43.17246" lon="6.63785">
        <ele>3</ele>
        <time>2018-09-22T11:13:58Z</time>
      </trkpt>
      <trkpt lat="43.17245" lon="6.63779">
        <ele>3</ele>
        <time>2018-09-22T11:14:03Z</time>
      </trkpt>
      <trkpt lat="43.17248" lon="6.63766">
        <ele>3</ele>
        <time>2018-09-22T11:14:17Z</time>
      </trkpt>
      <trkpt lat="43.17247" lon="6.63756">
        <ele>3</ele>
        <time>2018-09-22T11:14:30Z</time>
      </trkpt>
      <trkpt lat="43.17246" lon="6.63749">
        <ele>3</ele>
        <time>2018-09-22T11:14:35Z</time>
      </trkpt>
      <trkpt lat="43.17248" lon="6.63742">
        <ele>3</ele>
        <time>2018-09-22T11:14:40Z</time>
      </trkpt>
      <trkpt lat="43.17252" lon="6.63737">
        <ele>3</ele>
        <time>2018-09-22T11:14:45Z</time>
      </trkpt>
      <trkpt lat="43.17253" lon="6.63731">
        <ele>3</ele>
        <time>2018-09-22T11:14:54Z</time>
      </trkpt>
      <trkpt lat="43.17257" lon="6.63724">
        <ele>3</ele>
        <time>2018-09-22T11:15:04Z</time>
      </trkpt>
      <trkpt lat="43.1726" lon="6.63719">
        <ele>3</ele>
        <time>2018-09-22T11:15:09Z</time>
      </trkpt>
      <trkpt lat="43.17262" lon="6.63713">
        <ele>3</ele>
        <time>2018-09-22T11:15:14Z</time>
      </trkpt>
      <trkpt lat="43.17266" lon="6.63707">
        <ele>4</ele>
        <time>2018-09-22T11:15:21Z</time>
      </trkpt>
      <trkpt lat="43.17267" lon="6.637">
        <ele>4</ele>
        <time>2018-09-22T11:15:31Z</time>
      </trkpt>
      <trkpt lat="43.17263" lon="6.63691">
        <ele>3</ele>
        <time>2018-09-22T11:15:41Z</time>
      </trkpt>
      <trkpt lat="43.17267" lon="6.63653">
        <ele>3</ele>
        <time>2018-09-22T11:16:13Z</time>
      </trkpt>
      <trkpt lat="43.1727" lon="6.6364">
        <ele>3</ele>
        <time>2018-09-22T11:16:23Z</time>
      </trkpt>
      <trkpt lat="43.17271" lon="6.636">
        <ele>3</ele>
        <time>2018-09-22T11:16:53Z</time>
      </trkpt>
      <trkpt lat="43.17275" lon="6.63555">
        <ele>3</ele>
        <time>2018-09-22T11:17:26Z</time>
      </trkpt>
      <trkpt lat="43.17275" lon="6.63549">
        <ele>3</ele>
        <time>2018-09-22T11:17:31Z</time>
      </trkpt>
      <trkpt lat="43.17273" lon="6.63504">
        <ele>3</ele>
        <time>2018-09-22T11:18:05Z</time>
      </trkpt>
      <trkpt lat="43.17271" lon="6.63461">
        <ele>3</ele>
        <time>2018-09-22T11:18:35Z</time>
      </trkpt>
      <trkpt lat="43.17267" lon="6.63428">
        <ele>3</ele>
        <time>2018-09-22T11:18:58Z</time>
      </trkpt>
      <trkpt lat="43.17265" lon="6.63416">
        <ele>3</ele>
        <time>2018-09-22T11:19:15Z</time>
      </trkpt>
      <trkpt lat="43.17261" lon="6.6339">
        <ele>4</ele>
        <time>2018-09-22T11:19:33Z</time>
      </trkpt>
      <trkpt lat="43.17261" lon="6.63377">
        <ele>4</ele>
        <time>2018-09-22T11:19:41Z</time>
      </trkpt>
      <trkpt lat="43.17256" lon="6.63344">
        <ele>4</ele>
        <time>2018-09-22T11:20:05Z</time>
      </trkpt>
      <trkpt lat="43.17256" lon="6.63337">
        <ele>4</ele>
        <time>2018-09-22T11:20:10Z</time>
      </trkpt>
      <trkpt lat="43.17255" lon="6.63331">
        <ele>4</ele>
        <time>2018-09-22T11:20:15Z</time>
      </trkpt>
      <trkpt lat="43.17252" lon="6.63325">
        <ele>4</ele>
        <time>2018-09-22T11:20:20Z</time>
      </trkpt>
      <trkpt lat="43.17242" lon="6.63297">
        <ele>4</ele>
        <time>2018-09-22T11:20:42Z</time>
      </trkpt>
      <trkpt lat="43.17241" lon="6.6329">
        <ele>4</ele>
        <time>2018-09-22T11:20:47Z</time>
      </trkpt>
      <trkpt lat="43.17243" lon="6.63283">
        <ele>4</ele>
        <time>2018-09-22T11:20:52Z</time>
      </trkpt>
      <trkpt lat="43.17244" lon="6.63272">
        <ele>4</ele>
        <time>2018-09-22T11:21:02Z</time>
      </trkpt>
      <trkpt lat="43.17246" lon="6.63264">
        <ele>4</ele>
        <time>2018-09-22T11:21:10Z</time>
      </trkpt>
      <trkpt lat="43.17248" lon="6.63258">
        <ele>4</ele>
        <time>2018-09-22T11:21:15Z</time>
      </trkpt>
      <trkpt lat="43.17252" lon="6.63253">
        <ele>4</ele>
        <time>2018-09-22T11:21:20Z</time>
      </trkpt>
      <trkpt lat="43.17257" lon="6.6325">
        <ele>4</ele>
        <time>2018-09-22T11:21:28Z</time>
      </trkpt>
      <trkpt lat="43.17263" lon="6.63249">
        <ele>4</ele>
        <time>2018-09-22T11:21:33Z</time>
      </trkpt>
      <trkpt lat="43.17276" lon="6.63239">
        <ele>4</ele>
        <time>2018-09-22T11:21:47Z</time>
      </trkpt>
      <trkpt lat="43.17296" lon="6.63214">
        <ele>5</ele>
        <time>2018-09-22T11:22:23Z</time>
      </trkpt>
      <trkpt lat="43.17307" lon="6.63201">
        <ele>5</ele>
        <time>2018-09-22T11:22:41Z</time>
      </trkpt>
      <trkpt lat="43.17314" lon="6.63185">
        <ele>5</ele>
        <time>2018-09-22T11:23:11Z</time>
      </trkpt>
      <trkpt lat="43.17317" lon="6.6318">
        <ele>5</ele>
        <time>2018-09-22T11:23:16Z</time>
      </trkpt>
      <trkpt lat="43.17321" lon="6.63167">
        <ele>5</ele>
        <time>2018-09-22T11:23:25Z</time>
      </trkpt>
      <trkpt lat="43.17323" lon="6.63161">
        <ele>5</ele>
        <time>2018-09-22T11:23:29Z</time>
      </trkpt>
      <trkpt lat="43.17325" lon="6.63155">
        <ele>5</ele>
        <time>2018-09-22T11:23:33Z</time>
      </trkpt>
      <trkpt lat="43.17331" lon="6.63157">
        <ele>5</ele>
        <time>2018-09-22T11:24:10Z</time>
      </trkpt>
      <trkpt lat="43.17339" lon="6.63165">
        <ele>5</ele>
        <time>2018-09-22T11:24:19Z</time>
      </trkpt>
      <trkpt lat="43.17344" lon="6.63167">
        <ele>5</ele>
        <time>2018-09-22T11:24:23Z</time>
      </trkpt>
      <trkpt lat="43.1735" lon="6.63161">
        <ele>5</ele>
        <time>2018-09-22T11:24:30Z</time>
      </trkpt>
      <trkpt lat="43.17352" lon="6.63156">
        <ele>5</ele>
        <time>2018-09-22T11:24:35Z</time>
      </trkpt>
      <trkpt lat="43.17356" lon="6.63117">
        <ele>5</ele>
        <time>2018-09-22T11:25:09Z</time>
      </trkpt>
      <trkpt lat="43.17364" lon="6.63083">
        <ele>6</ele>
        <time>2018-09-22T11:25:32Z</time>
      </trkpt>
      <trkpt lat="43.17371" lon="6.63073">
        <ele>6</ele>
        <time>2018-09-22T11:25:40Z</time>
      </trkpt>
      <trkpt lat="43.17383" lon="6.63062">
        <ele>6</ele>
        <time>2018-09-22T11:25:52Z</time>
      </trkpt>
      <trkpt lat="43.17403" lon="6.63032">
        <ele>6</ele>
        <time>2018-09-22T11:26:16Z</time>
      </trkpt>
      <trkpt lat="43.17411" lon="6.63025">
        <ele>6</ele>
        <time>2018-09-22T11:26:24Z</time>
      </trkpt>
      <trkpt lat="43.17422" lon="6.63023">
        <ele>6</ele>
        <time>2018-09-22T11:26:32Z</time>
      </trkpt>
      <trkpt lat="43.17426" lon="6.63019">
        <ele>6</ele>
        <time>2018-09-22T11:26:36Z</time>
      </trkpt>
      <trkpt lat="43.17427" lon="6.63012">
        <ele>6</ele>
        <time>2018-09-22T11:26:40Z</time>
      </trkpt>
      <trkpt lat="43.17423" lon="6.62993">
        <ele>6</ele>
        <time>2018-09-22T11:26:52Z</time>
      </trkpt>
      <trkpt lat="43.17423" lon="6.62985">
        <ele>6</ele>
        <time>2018-09-22T11:26:57Z</time>
      </trkpt>
      <trkpt lat="43.17426" lon="6.62981">
        <ele>6</ele>
        <time>2018-09-22T11:27:01Z</time>
      </trkpt>
      <trkpt lat="43.17434" lon="6.62976">
        <ele>6</ele>
        <time>2018-09-22T11:27:18Z</time>
      </trkpt>
      <trkpt lat="43.17443" lon="6.6297">
        <ele>7</ele>
        <time>2018-09-22T11:27:27Z</time>
      </trkpt>
      <trkpt lat="43.17447" lon="6.62969">
        <ele>7</ele>
        <time>2018-09-22T11:27:31Z</time>
      </trkpt>
      <trkpt lat="43.17451" lon="6.62973">
        <ele>7</ele>
        <time>2018-09-22T11:27:35Z</time>
      </trkpt>
      <trkpt lat="43.17473" lon="6.6297">
        <ele>7</ele>
        <time>2018-09-22T11:27:51Z</time>
      </trkpt>
      <trkpt lat="43.17477" lon="6.62967">
        <ele>7</ele>
        <time>2018-09-22T11:27:55Z</time>
      </trkpt>
      <trkpt lat="43.17507" lon="6.62927">
        <ele>7</ele>
        <time>2018-09-22T11:28:27Z</time>
      </trkpt>
      <trkpt lat="43.17529" lon="6.62889">
        <ele>7</ele>
        <time>2018-09-22T11:28:55Z</time>
      </trkpt>
      <trkpt lat="43.17535" lon="6.6287">
        <ele>8</ele>
        <time>2018-09-22T11:29:07Z</time>
      </trkpt>
      <trkpt lat="43.17541" lon="6.62857">
        <ele>8</ele>
        <time>2018-09-22T11:29:15Z</time>
      </trkpt>
      <trkpt lat="43.17545" lon="6.62846">
        <ele>8</ele>
        <time>2018-09-22T11:29:23Z</time>
      </trkpt>
      <trkpt lat="43.1756" lon="6.62826">
        <ele>8</ele>
        <time>2018-09-22T11:29:39Z</time>
      </trkpt>
      <trkpt lat="43.17563" lon="6.6282">
        <ele>8</ele>
        <time>2018-09-22T11:29:43Z</time>
      </trkpt>
      <trkpt lat="43.17572" lon="6.62811">
        <ele>8</ele>
        <time>2018-09-22T11:29:58Z</time>
      </trkpt>
      <trkpt lat="43.17577" lon="6.62798">
        <ele>8</ele>
        <time>2018-09-22T11:30:07Z</time>
      </trkpt>
      <trkpt lat="43.17582" lon="6.62798">
        <ele>8</ele>
        <time>2018-09-22T11:30:12Z</time>
      </trkpt>
      <trkpt lat="43.17584" lon="6.62792">
        <ele>8</ele>
        <time>2018-09-22T11:30:17Z</time>
      </trkpt>
      <trkpt lat="43.17593" lon="6.62785">
        <ele>8</ele>
        <time>2018-09-22T11:30:25Z</time>
      </trkpt>
      <trkpt lat="43.17596" lon="6.6278">
        <ele>8</ele>
        <time>2018-09-22T11:30:29Z</time>
      </trkpt>
      <trkpt lat="43.1763" lon="6.62748">
        <ele>9</ele>
        <time>2018-09-22T11:31:01Z</time>
      </trkpt>
      <trkpt lat="43.17646" lon="6.62721">
        <ele>9</ele>
        <time>2018-09-22T11:31:24Z</time>
      </trkpt>
      <trkpt lat="43.17648" lon="6.62715">
        <ele>9</ele>
        <time>2018-09-22T11:31:29Z</time>
      </trkpt>
      <trkpt lat="43.17675" lon="6.62679">
        <ele>9</ele>
        <time>2018-09-22T11:31:59Z</time>
      </trkpt>
      <trkpt lat="43.17687" lon="6.62667">
        <ele>9</ele>
        <time>2018-09-22T11:32:11Z</time>
      </trkpt>
      <trkpt lat="43.17691" lon="6.62665">
        <ele>9</ele>
        <time>2018-09-22T11:32:15Z</time>
      </trkpt>
      <trkpt lat="43.17702" lon="6.62665">
        <ele>10</ele>
        <time>2018-09-22T11:32:23Z</time>
      </trkpt>
      <trkpt lat="43.17723" lon="6.62666">
        <ele>10</ele>
        <time>2018-09-22T11:32:38Z</time>
      </trkpt>
      <trkpt lat="43.17742" lon="6.6266">
        <ele>10</ele>
        <time>2018-09-22T11:32:54Z</time>
      </trkpt>
      <trkpt lat="43.17781" lon="6.6266">
        <ele>10</ele>
        <time>2018-09-22T11:33:26Z</time>
      </trkpt>
      <trkpt lat="43.17785" lon="6.62657">
        <ele>10</ele>
        <time>2018-09-22T11:33:31Z</time>
      </trkpt>
      <trkpt lat="43.17795" lon="6.62657">
        <ele>10</ele>
        <time>2018-09-22T11:33:39Z</time>
      </trkpt>
      <trkpt lat="43.178" lon="6.62659">
        <ele>10</ele>
        <time>2018-09-22T11:33:43Z</time>
      </trkpt>
      <trkpt lat="43.17812" lon="6.62665">
        <ele>10</ele>
        <time>2018-09-22T11:33:56Z</time>
      </trkpt>
      <trkpt lat="43.17814" lon="6.62658">
        <ele>12</ele>
        <time>2018-09-22T11:36:41Z</time>
      </trkpt>
      <trkpt lat="43.17819" lon="6.62656">
        <ele>12</ele>
        <time>2018-09-22T11:36:46Z</time>
      </trkpt>
      <trkpt lat="43.17825" lon="6.62647">
        <ele>12</ele>
        <time>2018-09-22T11:36:53Z</time>
      </trkpt>
      <trkpt lat="43.17801" lon="6.6263">
        <ele>12</ele>
        <time>2018-09-22T11:37:17Z</time>
      </trkpt>
      <trkpt lat="43.17777" lon="6.62618">
        <ele>13</ele>
        <time>2018-09-22T11:37:37Z</time>
      </trkpt>
      <trkpt lat="43.17764" lon="6.62607">
        <ele>13</ele>
        <time>2018-09-22T11:37:49Z</time>
      </trkpt>
      <trkpt lat="43.17761" lon="6.62603">
        <ele>13</ele>
        <time>2018-09-22T11:37:53Z</time>
      </trkpt>
      <trkpt lat="43.17757" lon="6.62592">
        <ele>13</ele>
        <time>2018-09-22T11:38:01Z</time>
      </trkpt>
      <trkpt lat="43.17752" lon="6.62572">
        <ele>13</ele>
        <time>2018-09-22T11:38:14Z</time>
      </trkpt>
      <trkpt lat="43.17752" lon="6.62566">
        <ele>13</ele>
        <time>2018-09-22T11:38:18Z</time>
      </trkpt>
      <trkpt lat="43.17754" lon="6.62558">
        <ele>13</ele>
        <time>2018-09-22T11:38:23Z</time>
      </trkpt>
      <trkpt lat="43.17755" lon="6.62533">
        <ele>13</ele>
        <time>2018-09-22T11:38:39Z</time>
      </trkpt>
      <trkpt lat="43.17754" lon="6.62518">
        <ele>13</ele>
        <time>2018-09-22T11:38:48Z</time>
      </trkpt>
      <trkpt lat="43.17755" lon="6.62505">
        <ele>13</ele>
        <time>2018-09-22T11:38:56Z</time>
      </trkpt>
      <trkpt lat="43.17754" lon="6.62492">
        <ele>14</ele>
        <time>2018-09-22T11:39:04Z</time>
      </trkpt>
      <trkpt lat="43.17757" lon="6.62435">
        <ele>14</ele>
        <time>2018-09-22T11:39:36Z</time>
      </trkpt>
      <trkpt lat="43.17753" lon="6.624">
        <ele>14</ele>
        <time>2018-09-22T11:39:56Z</time>
      </trkpt>
      <trkpt lat="43.17745" lon="6.62358">
        <ele>14</ele>
        <time>2018-09-22T11:40:20Z</time>
      </trkpt>
      <trkpt lat="43.17744" lon="6.62344">
        <ele>14</ele>
        <time>2018-09-22T11:40:28Z</time>
      </trkpt>
      <trkpt lat="43.17731" lon="6.62298">
        <ele>15</ele>
        <time>2018-09-22T11:40:58Z</time>
      </trkpt>
      <trkpt lat="43.17717" lon="6.62247">
        <ele>15</ele>
        <time>2018-09-22T11:41:31Z</time>
      </trkpt>
      <trkpt lat="43.17711" lon="6.62219">
        <ele>15</ele>
        <time>2018-09-22T11:41:47Z</time>
      </trkpt>
      <trkpt lat="43.17706" lon="6.62192">
        <ele>15</ele>
        <time>2018-09-22T11:42:03Z</time>
      </trkpt>
      <trkpt lat="43.17703" lon="6.62178">
        <ele>15</ele>
        <time>2018-09-22T11:42:11Z</time>
      </trkpt>
      <trkpt lat="43.17702" lon="6.62157">
        <ele>16</ele>
        <time>2018-09-22T11:42:23Z</time>
      </trkpt>
      <trkpt lat="43.17703" lon="6.6213">
        <ele>16</ele>
        <time>2018-09-22T11:42:39Z</time>
      </trkpt>
      <trkpt lat="43.17694" lon="6.62092">
        <ele>16</ele>
        <time>2018-09-22T11:43:03Z</time>
      </trkpt>
      <trkpt lat="43.17693" lon="6.62085">
        <ele>16</ele>
        <time>2018-09-22T11:43:07Z</time>
      </trkpt>
      <trkpt lat="43.17686" lon="6.62039">
        <ele>16</ele>
        <time>2018-09-22T11:43:40Z</time>
      </trkpt>
      <trkpt lat="43.17686" lon="6.62032">
        <ele>16</ele>
        <time>2018-09-22T11:43:45Z</time>
      </trkpt>
      <trkpt lat="43.17683" lon="6.62005">
        <ele>17</ele>
        <time>2018-09-22T11:44:03Z</time>
      </trkpt>
      <trkpt lat="43.17688" lon="6.6197">
        <ele>17</ele>
        <time>2018-09-22T11:44:27Z</time>
      </trkpt>
      <trkpt lat="43.17696" lon="6.61952">
        <ele>17</ele>
        <time>2018-09-22T11:44:39Z</time>
      </trkpt>
      <trkpt lat="43.17699" lon="6.61931">
        <ele>17</ele>
        <time>2018-09-22T11:44:53Z</time>
      </trkpt>
      <trkpt lat="43.17698" lon="6.61919">
        <ele>17</ele>
        <time>2018-09-22T11:45:01Z</time>
      </trkpt>
      <trkpt lat="43.17695" lon="6.61913">
        <ele>17</ele>
        <time>2018-09-22T11:45:05Z</time>
      </trkpt>
      <trkpt lat="43.17686" lon="6.61906">
        <ele>17</ele>
        <time>2018-09-22T11:45:14Z</time>
      </trkpt>
      <trkpt lat="43.17676" lon="6.61891">
        <ele>17</ele>
        <time>2018-09-22T11:45:28Z</time>
      </trkpt>
      <trkpt lat="43.17655" lon="6.61851">
        <ele>18</ele>
        <time>2018-09-22T11:46:00Z</time>
      </trkpt>
      <trkpt lat="43.17637" lon="6.61811">
        <ele>18</ele>
        <time>2018-09-22T11:46:30Z</time>
      </trkpt>
      <trkpt lat="43.17634" lon="6.61798">
        <ele>18</ele>
        <time>2018-09-22T11:46:40Z</time>
      </trkpt>
      <trkpt lat="43.17606" lon="6.61767">
        <ele>18</ele>
        <time>2018-09-22T11:47:13Z</time>
      </trkpt>
      <trkpt lat="43.17586" lon="6.61745">
        <ele>19</ele>
        <time>2018-09-22T11:47:35Z</time>
      </trkpt>
      <trkpt lat="43.17582" lon="6.61742">
        <ele>19</ele>
        <time>2018-09-22T11:47:39Z</time>
      </trkpt>
      <trkpt lat="43.17569" lon="6.61735">
        <ele>19</ele>
        <time>2018-09-22T11:47:51Z</time>
      </trkpt>
      <trkpt lat="43.17562" lon="6.61727">
        <ele>19</ele>
        <time>2018-09-22T11:47:59Z</time>
      </trkpt>
      <trkpt lat="43.17555" lon="6.61708">
        <ele>19</ele>
        <time>2018-09-22T11:48:11Z</time>
      </trkpt>
      <trkpt lat="43.17545" lon="6.61663">
        <ele>19</ele>
        <time>2018-09-22T11:48:41Z</time>
      </trkpt>
      <trkpt lat="43.17538" lon="6.61646">
        <ele>20</ele>
        <time>2018-09-22T11:49:05Z</time>
      </trkpt>
      <trkpt lat="43.17528" lon="6.61608">
        <ele>20</ele>
        <time>2018-09-22T11:49:29Z</time>
      </trkpt>
      <trkpt lat="43.17512" lon="6.61561">
        <ele>20</ele>
        <time>2018-09-22T11:50:01Z</time>
      </trkpt>
      <trkpt lat="43.17493" lon="6.61512">
        <ele>20</ele>
        <time>2018-09-22T11:50:34Z</time>
      </trkpt>
      <trkpt lat="43.17478" lon="6.61485">
        <ele>21</ele>
        <time>2018-09-22T11:50:55Z</time>
      </trkpt>
      <trkpt lat="43.17448" lon="6.61444">
        <ele>21</ele>
        <time>2018-09-22T11:51:27Z</time>
      </trkpt>
      <trkpt lat="43.17423" lon="6.61411">
        <ele>21</ele>
        <time>2018-09-22T11:51:56Z</time>
      </trkpt>
      <trkpt lat="43.17421" lon="6.61406">
        <ele>21</ele>
        <time>2018-09-22T11:52:01Z</time>
      </trkpt>
      <trkpt lat="43.17418" lon="6.614">
        <ele>21</ele>
        <time>2018-09-22T11:52:13Z</time>
      </trkpt>
      <trkpt lat="43.17416" lon="6.61394">
        <ele>21</ele>
        <time>2018-09-22T11:52:18Z</time>
      </trkpt>
      <trkpt lat="43.17415" lon="6.61387">
        <ele>22</ele>
        <time>2018-09-22T11:52:23Z</time>
      </trkpt>
      <trkpt lat="43.17416" lon="6.61379">
        <ele>22</ele>
        <time>2018-09-22T11:52:28Z</time>
      </trkpt>
      <trkpt lat="43.17417" lon="6.61373">
        <ele>22</ele>
        <time>2018-09-22T11:52:33Z</time>
      </trkpt>
      <trkpt lat="43.17413" lon="6.6136">
        <ele>22</ele>
        <time>2018-09-22T11:52:41Z</time>
      </trkpt>
      <trkpt lat="43.1741" lon="6.61355">
        <ele>22</ele>
        <time>2018-09-22T11:52:45Z</time>
      </trkpt>
      <trkpt lat="43.17404" lon="6.6135">
        <ele>22</ele>
        <time>2018-09-22T11:52:52Z</time>
      </trkpt>
      <trkpt lat="43.17383" lon="6.61302">
        <ele>22</ele>
        <time>2018-09-22T11:53:26Z</time>
      </trkpt>
      <trkpt lat="43.1738" lon="6.61297">
        <ele>22</ele>
        <time>2018-09-22T11:53:30Z</time>
      </trkpt>
      <trkpt lat="43.17379" lon="6.61284">
        <ele>22</ele>
        <time>2018-09-22T11:53:39Z</time>
      </trkpt>
      <trkpt lat="43.17376" lon="6.61278">
        <ele>22</ele>
        <time>2018-09-22T11:53:44Z</time>
      </trkpt>
      <trkpt lat="43.17375" lon="6.61264">
        <ele>22</ele>
        <time>2018-09-22T11:53:53Z</time>
      </trkpt>
      <trkpt lat="43.17371" lon="6.61252">
        <ele>22</ele>
        <time>2018-09-22T11:54:00Z</time>
      </trkpt>
      <trkpt lat="43.17371" lon="6.61232">
        <ele>23</ele>
        <time>2018-09-22T11:54:13Z</time>
      </trkpt>
      <trkpt lat="43.17368" lon="6.61218">
        <ele>23</ele>
        <time>2018-09-22T11:54:22Z</time>
      </trkpt>
      <trkpt lat="43.17368" lon="6.61204">
        <ele>23</ele>
        <time>2018-09-22T11:54:30Z</time>
      </trkpt>
      <trkpt lat="43.17366" lon="6.61197">
        <ele>23</ele>
        <time>2018-09-22T11:54:35Z</time>
      </trkpt>
      <trkpt lat="43.17366" lon="6.61161">
        <ele>22</ele>
        <time>2018-09-22T11:54:54Z</time>
      </trkpt>
      <trkpt lat="43.17367" lon="6.61154">
        <ele>22</ele>
        <time>2018-09-22T11:54:58Z</time>
      </trkpt>
      <trkpt lat="43.1737" lon="6.61147">
        <ele>22</ele>
        <time>2018-09-22T11:55:01Z</time>
      </trkpt>
      <trkpt lat="43.17371" lon="6.61141">
        <ele>22</ele>
        <time>2018-09-22T11:55:04Z</time>
      </trkpt>
      <trkpt lat="43.17369" lon="6.61134">
        <ele>22</ele>
        <time>2018-09-22T11:55:08Z</time>
      </trkpt>
      <trkpt lat="43.17371" lon="6.61126">
        <ele>22</ele>
        <time>2018-09-22T11:55:12Z</time>
      </trkpt>
      <trkpt lat="43.17369" lon="6.6112">
        <ele>22</ele>
        <time>2018-09-22T11:55:16Z</time>
      </trkpt>
      <trkpt lat="43.17365" lon="6.61116">
        <ele>22</ele>
        <time>2018-09-22T11:55:20Z</time>
      </trkpt>
      <trkpt lat="43.17355" lon="6.61103">
        <ele>22</ele>
        <time>2018-09-22T11:55:39Z</time>
      </trkpt>
      <trkpt lat="43.17354" lon="6.61097">
        <ele>22</ele>
        <time>2018-09-22T11:55:44Z</time>
      </trkpt>
      <trkpt lat="43.17354" lon="6.61091">
        <ele>22</ele>
        <time>2018-09-22T11:55:56Z</time>
      </trkpt>
      <trkpt lat="43.17354" lon="6.61083">
        <ele>21</ele>
        <time>2018-09-22T11:56:47Z</time>
      </trkpt>
      <trkpt lat="43.17355" lon="6.61075">
        <ele>21</ele>
        <time>2018-09-22T11:56:52Z</time>
      </trkpt>
      <trkpt lat="43.17352" lon="6.61053">
        <ele>21</ele>
        <time>2018-09-22T11:57:02Z</time>
      </trkpt>
      <trkpt lat="43.17355" lon="6.61032">
        <ele>21</ele>
        <time>2018-09-22T11:57:17Z</time>
      </trkpt>
      <trkpt lat="43.17358" lon="6.61022">
        <ele>21</ele>
        <time>2018-09-22T11:57:30Z</time>
      </trkpt>
      <trkpt lat="43.1736" lon="6.61009">
        <ele>21</ele>
        <time>2018-09-22T11:57:39Z</time>
      </trkpt>
      <trkpt lat="43.17363" lon="6.61003">
        <ele>21</ele>
        <time>2018-09-22T11:57:44Z</time>
      </trkpt>
      <trkpt lat="43.17364" lon="6.60996">
        <ele>21</ele>
        <time>2018-09-22T11:57:49Z</time>
      </trkpt>
      <trkpt lat="43.17374" lon="6.60981">
        <ele>22</ele>
        <time>2018-09-22T11:58:03Z</time>
      </trkpt>
      <trkpt lat="43.17378" lon="6.60978">
        <ele>22</ele>
        <time>2018-09-22T11:58:07Z</time>
      </trkpt>
      <trkpt lat="43.17385" lon="6.60968">
        <ele>22</ele>
        <time>2018-09-22T11:58:17Z</time>
      </trkpt>
      <trkpt lat="43.17416" lon="6.60941">
        <ele>22</ele>
        <time>2018-09-22T11:58:50Z</time>
      </trkpt>
      <trkpt lat="43.17425" lon="6.60934">
        <ele>22</ele>
        <time>2018-09-22T11:59:00Z</time>
      </trkpt>
      <trkpt lat="43.17434" lon="6.60929">
        <ele>22</ele>
        <time>2018-09-22T11:59:08Z</time>
      </trkpt>
      <trkpt lat="43.17445" lon="6.60913">
        <ele>22</ele>
        <time>2018-09-22T11:59:22Z</time>
      </trkpt>
      <trkpt lat="43.17447" lon="6.60907">
        <ele>22</ele>
        <time>2018-09-22T11:59:26Z</time>
      </trkpt>
      <trkpt lat="43.17446" lon="6.60901">
        <ele>22</ele>
        <time>2018-09-22T11:59:30Z</time>
      </trkpt>
      <trkpt lat="43.17439" lon="6.60877">
        <ele>23</ele>
        <time>2018-09-22T11:59:49Z</time>
      </trkpt>
      <trkpt lat="43.17429" lon="6.60855">
        <ele>23</ele>
        <time>2018-09-22T12:00:10Z</time>
      </trkpt>
      <trkpt lat="43.17429" lon="6.6084">
        <ele>23</ele>
        <time>2018-09-22T12:00:20Z</time>
      </trkpt>
      <trkpt lat="43.17431" lon="6.60831">
        <ele>23</ele>
        <time>2018-09-22T12:00:26Z</time>
      </trkpt>
      <trkpt lat="43.17439" lon="6.60815">
        <ele>23</ele>
        <time>2018-09-22T12:00:40Z</time>
      </trkpt>
      <trkpt lat="43.17456" lon="6.60801">
        <ele>23</ele>
        <time>2018-09-22T12:00:56Z</time>
      </trkpt>
      <trkpt lat="43.17461" lon="6.60798">
        <ele>23</ele>
        <time>2018-09-22T12:01:00Z</time>
      </trkpt>
      <trkpt lat="43.17468" lon="6.6079">
        <ele>23</ele>
        <time>2018-09-22T12:01:08Z</time>
      </trkpt>
      <trkpt lat="43.17507" lon="6.60768">
        <ele>24</ele>
        <time>2018-09-22T12:01:40Z</time>
      </trkpt>
      <trkpt lat="43.17542" lon="6.60743">
        <ele>24</ele>
        <time>2018-09-22T12:02:11Z</time>
      </trkpt>
      <trkpt lat="43.17551" lon="6.60739">
        <ele>24</ele>
        <time>2018-09-22T12:02:18Z</time>
      </trkpt>
      <trkpt lat="43.17572" lon="6.60736">
        <ele>24</ele>
        <time>2018-09-22T12:02:32Z</time>
      </trkpt>
      <trkpt lat="43.17582" lon="6.60731">
        <ele>24</ele>
        <time>2018-09-22T12:02:39Z</time>
      </trkpt>
      <trkpt lat="43.17589" lon="6.6072">
        <ele>24</ele>
        <time>2018-09-22T12:02:47Z</time>
      </trkpt>
      <trkpt lat="43.17597" lon="6.60702">
        <ele>25</ele>
        <time>2018-09-22T12:02:59Z</time>
      </trkpt>
      <trkpt lat="43.17605" lon="6.60675">
        <ele>25</ele>
        <time>2018-09-22T12:03:15Z</time>
      </trkpt>
      <trkpt lat="43.17612" lon="6.60662">
        <ele>25</ele>
        <time>2018-09-22T12:03:23Z</time>
      </trkpt>
      <trkpt lat="43.17616" lon="6.60657">
        <ele>25</ele>
        <time>2018-09-22T12:03:27Z</time>
      </trkpt>
      <trkpt lat="43.17621" lon="6.60654">
        <ele>25</ele>
        <time>2018-09-22T12:03:31Z</time>
      </trkpt>
      <trkpt lat="43.17631" lon="6.6065">
        <ele>25</ele>
        <time>2018-09-22T12:03:38Z</time>
      </trkpt>
      <trkpt lat="43.17643" lon="6.60653">
        <ele>25</ele>
        <time>2018-09-22T12:03:46Z</time>
      </trkpt>
      <trkpt lat="43.17668" lon="6.60664">
        <ele>25</ele>
        <time>2018-09-22T12:04:05Z</time>
      </trkpt>
      <trkpt lat="43.17674" lon="6.60669">
        <ele>25</ele>
        <time>2018-09-22T12:04:23Z</time>
      </trkpt>
      <trkpt lat="43.17704" lon="6.6071">
        <ele>26</ele>
        <time>2018-09-22T12:04:55Z</time>
      </trkpt>
      <trkpt lat="43.17709" lon="6.60714">
        <ele>26</ele>
        <time>2018-09-22T12:04:59Z</time>
      </trkpt>
      <trkpt lat="43.1775" lon="6.60729">
        <ele>26</ele>
        <time>2018-09-22T12:05:31Z</time>
      </trkpt>
      <trkpt lat="43.17784" lon="6.60736">
        <ele>26</ele>
        <time>2018-09-22T12:06:02Z</time>
      </trkpt>
      <trkpt lat="43.17789" lon="6.60737">
        <ele>26</ele>
        <time>2018-09-22T12:06:07Z</time>
      </trkpt>
      <trkpt lat="43.17799" lon="6.60736">
        <ele>27</ele>
        <time>2018-09-22T12:06:15Z</time>
      </trkpt>
      <trkpt lat="43.17839" lon="6.60738">
        <ele>27</ele>
        <time>2018-09-22T12:06:46Z</time>
      </trkpt>
      <trkpt lat="43.17879" lon="6.60734">
        <ele>27</ele>
        <time>2018-09-22T12:07:18Z</time>
      </trkpt>
      <trkpt lat="43.17899" lon="6.60728">
        <ele>27</ele>
        <time>2018-09-22T12:07:34Z</time>
      </trkpt>
      <trkpt lat="43.1794" lon="6.60723">
        <ele>28</ele>
        <time>2018-09-22T12:08:04Z</time>
      </trkpt>
      <trkpt lat="43.1797" lon="6.60716">
        <ele>28</ele>
        <time>2018-09-22T12:08:24Z</time>
      </trkpt>
      <trkpt lat="43.18007" lon="6.60692">
        <ele>28</ele>
        <time>2018-09-22T12:09:24Z</time>
      </trkpt>
      <trkpt lat="43.18043" lon="6.60668">
        <ele>29</ele>
        <time>2018-09-22T12:09:59Z</time>
      </trkpt>
      <trkpt lat="43.18072" lon="6.60646">
        <ele>29</ele>
        <time>2018-09-22T12:10:28Z</time>
      </trkpt>
      <trkpt lat="43.18076" lon="6.60641">
        <ele>29</ele>
        <time>2018-09-22T12:10:32Z</time>
      </trkpt>
      <trkpt lat="43.18115" lon="6.60618">
        <ele>29</ele>
        <time>2018-09-22T12:11:03Z</time>
      </trkpt>
      <trkpt lat="43.18131" lon="6.60618">
        <ele>30</ele>
        <time>2018-09-22T12:11:14Z</time>
      </trkpt>
      <trkpt lat="43.18173" lon="6.60637">
        <ele>30</ele>
        <time>2018-09-22T12:11:46Z</time>
      </trkpt>
      <trkpt lat="43.18192" lon="6.60649">
        <ele>30</ele>
        <time>2018-09-22T12:12:02Z</time>
      </trkpt>
      <trkpt lat="43.18205" lon="6.60661">
        <ele>30</ele>
        <time>2018-09-22T12:12:13Z</time>
      </trkpt>
      <trkpt lat="43.1821" lon="6.60664">
        <ele>30</ele>
        <time>2018-09-22T12:12:17Z</time>
      </trkpt>
      <trkpt lat="43.18221" lon="6.60663">
        <ele>30</ele>
        <time>2018-09-22T12:12:25Z</time>
      </trkpt>
      <trkpt lat="43.1823" lon="6.60657">
        <ele>30</ele>
        <time>2018-09-22T12:12:34Z</time>
      </trkpt>
      <trkpt lat="43.18234" lon="6.60653">
        <ele>30</ele>
        <time>2018-09-22T12:12:38Z</time>
      </trkpt>
      <trkpt lat="43.18246" lon="6.6063">
        <ele>31</ele>
        <time>2018-09-22T12:12:56Z</time>
      </trkpt>
      <trkpt lat="43.18249" lon="6.60622">
        <ele>31</ele>
        <time>2018-09-22T12:13:06Z</time>
      </trkpt>
      <trkpt lat="43.18252" lon="6.60617">
        <ele>31</ele>
        <time>2018-09-22T12:13:10Z</time>
      </trkpt>
      <trkpt lat="43.18257" lon="6.60584">
        <ele>31</ele>
        <time>2018-09-22T12:13:35Z</time>
      </trkpt>
      <trkpt lat="43.18259" lon="6.60577">
        <ele>31</ele>
        <time>2018-09-22T12:13:40Z</time>
      </trkpt>
      <trkpt lat="43.18267" lon="6.60563">
        <ele>31</ele>
        <time>2018-09-22T12:13:50Z</time>
      </trkpt>
      <trkpt lat="43.18272" lon="6.60559">
        <ele>31</ele>
        <time>2018-09-22T12:13:55Z</time>
      </trkpt>
      <trkpt lat="43.18285" lon="6.60538">
        <ele>31</ele>
        <time>2018-09-22T12:14:12Z</time>
      </trkpt>
      <trkpt lat="43.18291" lon="6.60512">
        <ele>31</ele>
        <time>2018-09-22T12:14:29Z</time>
      </trkpt>
      <trkpt lat="43.18291" lon="6.60492">
        <ele>32</ele>
        <time>2018-09-22T12:14:42Z</time>
      </trkpt>
      <trkpt lat="43.18295" lon="6.60475">
        <ele>32</ele>
        <time>2018-09-22T12:14:54Z</time>
      </trkpt>
      <trkpt lat="43.18299" lon="6.60455">
        <ele>32</ele>
        <time>2018-09-22T12:15:06Z</time>
      </trkpt>
      <trkpt lat="43.18306" lon="6.60438">
        <ele>32</ele>
        <time>2018-09-22T12:15:18Z</time>
      </trkpt>
      <trkpt lat="43.18316" lon="6.60422">
        <ele>32</ele>
        <time>2018-09-22T12:15:30Z</time>
      </trkpt>
      <trkpt lat="43.18338" lon="6.60404">
        <ele>32</ele>
        <time>2018-09-22T12:15:54Z</time>
      </trkpt>
      <trkpt lat="43.18344" lon="6.60404">
        <ele>32</ele>
        <time>2018-09-22T12:15:58Z</time>
      </trkpt>
      <trkpt lat="43.18368" lon="6.60416">
        <ele>32</ele>
        <time>2018-09-22T12:16:18Z</time>
      </trkpt>
      <trkpt lat="43.18377" lon="6.60422">
        <ele>32</ele>
        <time>2018-09-22T12:16:26Z</time>
      </trkpt>
      <trkpt lat="43.18387" lon="6.60436">
        <ele>32</ele>
        <time>2018-09-22T12:16:39Z</time>
      </trkpt>
      <trkpt lat="43.18391" lon="6.60442">
        <ele>32</ele>
        <time>2018-09-22T12:16:44Z</time>
      </trkpt>
      <trkpt lat="43.18407" lon="6.60456">
        <ele>32</ele>
        <time>2018-09-22T12:16:59Z</time>
      </trkpt>
      <trkpt lat="43.18413" lon="6.60459">
        <ele>32</ele>
        <time>2018-09-22T12:17:03Z</time>
      </trkpt>
      <trkpt lat="43.1843" lon="6.60455">
        <ele>32</ele>
        <time>2018-09-22T12:17:17Z</time>
      </trkpt>
      <trkpt lat="43.18435" lon="6.60453">
        <ele>32</ele>
        <time>2018-09-22T12:17:21Z</time>
      </trkpt>
      <trkpt lat="43.18446" lon="6.60438">
        <ele>32</ele>
        <time>2018-09-22T12:17:33Z</time>
      </trkpt>
      <trkpt lat="43.18453" lon="6.60417">
        <ele>32</ele>
        <time>2018-09-22T12:17:45Z</time>
      </trkpt>
      <trkpt lat="43.1846" lon="6.60389">
        <ele>31</ele>
        <time>2018-09-22T12:18:01Z</time>
      </trkpt>
      <trkpt lat="43.18458" lon="6.60374">
        <ele>31</ele>
        <time>2018-09-22T12:18:09Z</time>
      </trkpt>
      <trkpt lat="43.18452" lon="6.6036">
        <ele>31</ele>
        <time>2018-09-22T12:18:17Z</time>
      </trkpt>
      <trkpt lat="43.18439" lon="6.60341">
        <ele>31</ele>
        <time>2018-09-22T12:18:30Z</time>
      </trkpt>
      <trkpt lat="43.1842" lon="6.60317">
        <ele>31</ele>
        <time>2018-09-22T12:18:50Z</time>
      </trkpt>
      <trkpt lat="43.1841" lon="6.60301">
        <ele>31</ele>
        <time>2018-09-22T12:19:02Z</time>
      </trkpt>
      <trkpt lat="43.18407" lon="6.60281">
        <ele>31</ele>
        <time>2018-09-22T12:19:14Z</time>
      </trkpt>
      <trkpt lat="43.18406" lon="6.60267">
        <ele>31</ele>
        <time>2018-09-22T12:19:22Z</time>
      </trkpt>
      <trkpt lat="43.18405" lon="6.6026">
        <ele>31</ele>
        <time>2018-09-22T12:19:26Z</time>
      </trkpt>
      <trkpt lat="43.18387" lon="6.60225">
        <ele>30</ele>
        <time>2018-09-22T12:19:49Z</time>
      </trkpt>
      <trkpt lat="43.1838" lon="6.60205">
        <ele>30</ele>
        <time>2018-09-22T12:20:01Z</time>
      </trkpt>
      <trkpt lat="43.18356" lon="6.60173">
        <ele>30</ele>
        <time>2018-09-22T12:20:25Z</time>
      </trkpt>
      <trkpt lat="43.18351" lon="6.60169">
        <ele>30</ele>
        <time>2018-09-22T12:20:29Z</time>
      </trkpt>
      <trkpt lat="43.18344" lon="6.60159">
        <ele>30</ele>
        <time>2018-09-22T12:20:37Z</time>
      </trkpt>
      <trkpt lat="43.18342" lon="6.60152">
        <ele>30</ele>
        <time>2018-09-22T12:20:42Z</time>
      </trkpt>
      <trkpt lat="43.18343" lon="6.60144">
        <ele>30</ele>
        <time>2018-09-22T12:20:46Z</time>
      </trkpt>
      <trkpt lat="43.18361" lon="6.60107">
        <ele>29</ele>
        <time>2018-09-22T12:21:10Z</time>
      </trkpt>
      <trkpt lat="43.18364" lon="6.60101">
        <ele>29</ele>
        <time>2018-09-22T12:21:14Z</time>
      </trkpt>
      <trkpt lat="43.18367" lon="6.60097">
        <ele>29</ele>
        <time>2018-09-22T12:21:18Z</time>
      </trkpt>
      <trkpt lat="43.18369" lon="6.60084">
        <ele>29</ele>
        <time>2018-09-22T12:21:26Z</time>
      </trkpt>
      <trkpt lat="43.18376" lon="6.60065">
        <ele>29</ele>
        <time>2018-09-22T12:21:38Z</time>
      </trkpt>
      <trkpt lat="43.18376" lon="6.60058">
        <ele>29</ele>
        <time>2018-09-22T12:21:42Z</time>
      </trkpt>
      <trkpt lat="43.18381" lon="6.60058">
        <ele>29</ele>
        <time>2018-09-22T12:21:49Z</time>
      </trkpt>
      <trkpt lat="43.1838" lon="6.60044">
        <ele>29</ele>
        <time>2018-09-22T12:21:58Z</time>
      </trkpt>
      <trkpt lat="43.18397" lon="6.6">
        <ele>29</ele>
        <time>2018-09-22T12:22:29Z</time>
      </trkpt>
      <trkpt lat="43.18412" lon="6.59947">
        <ele>28</ele>
        <time>2018-09-22T12:23:00Z</time>
      </trkpt>
      <trkpt lat="43.18421" lon="6.59912">
        <ele>28</ele>
        <time>2018-09-22T12:23:20Z</time>
      </trkpt>
      <trkpt lat="43.1842" lon="6.59906">
        <ele>28</ele>
        <time>2018-09-22T12:23:24Z</time>
      </trkpt>
      <trkpt lat="43.1842" lon="6.59899">
        <ele>28</ele>
        <time>2018-09-22T12:23:28Z</time>
      </trkpt>
      <trkpt lat="43.18426" lon="6.59878">
        <ele>28</ele>
        <time>2018-09-22T12:23:40Z</time>
      </trkpt>
      <trkpt lat="43.18423" lon="6.59871">
        <ele>28</ele>
        <time>2018-09-22T12:23:44Z</time>
      </trkpt>
      <trkpt lat="43.18421" lon="6.59865">
        <ele>28</ele>
        <time>2018-09-22T12:23:59Z</time>
      </trkpt>
      <trkpt lat="43.18428" lon="6.59856">
        <ele>28</ele>
        <time>2018-09-22T12:24:07Z</time>
      </trkpt>
      <trkpt lat="43.18431" lon="6.59852">
        <ele>28</ele>
        <time>2018-09-22T12:24:17Z</time>
      </trkpt>
      <trkpt lat="43.18434" lon="6.59848">
        <ele>26</ele>
        <time>2018-09-22T12:26:57Z</time>
      </trkpt>
      <trkpt lat="43.18443" lon="6.59841">
        <ele>26</ele>
        <time>2018-09-22T12:27:15Z</time>
      </trkpt>
      <trkpt lat="43.18457" lon="6.59844">
        <ele>26</ele>
        <time>2018-09-22T12:27:43Z</time>
      </trkpt>
      <trkpt lat="43.1848" lon="6.59847">
        <ele>25</ele>
        <time>2018-09-22T12:28:08Z</time>
      </trkpt>
      <trkpt lat="43.18485" lon="6.59845">
        <ele>25</ele>
        <time>2018-09-22T12:28:13Z</time>
      </trkpt>
      <trkpt lat="43.18489" lon="6.59837">
        <ele>25</ele>
        <time>2018-09-22T12:28:44Z</time>
      </trkpt>
    </trkseg>
  </trk>
</gpx>